<?xml version='1.0' encoding='UTF-8'?><gpx version="1.1" creator="JPX - https://github.com/jenetics/jpx" xmlns="http://www.topografix.com/GPX/1/1"><trk><trkseg><trkpt lat="41.514827786005306" lon="13.701201758073498"><ele>120.0</ele><time>2026-05-02T12:45:03Z</time></trkpt><trkpt lat="41.51481948544381" lon="13.701292745805466"><ele>120.0</ele><time>2026-05-02T12:45:17Z</time></trkpt><trkpt lat="41.51475206082762" lon="13.701373728743386"><ele>120.0</ele><time>2026-05-02T12:45:20Z</time></trkpt><trkpt lat="41.514688554012196" lon="13.701392481045517"><ele>120.0</ele><time>2026-05-02T12:45:23Z</time></trkpt><trkpt lat="41.51466542428587" lon="13.70147364865914"><ele>120.0</ele><time>2026-05-02T12:45:26Z</time></trkpt><trkpt lat="41.51460693588151" lon="13.701536092251228"><ele>120.0</ele><time>2026-05-02T12:45:38Z</time></trkpt><trkpt lat="41.514416764769535" lon="13.701610062561098"><ele>120.2</ele><time>2026-05-02T12:45:56Z</time></trkpt><trkpt lat="41.5143151257016" lon="13.701567362674508"><ele>120.4</ele><time>2026-05-02T12:45:58Z</time></trkpt><trkpt lat="41.514202506675936" lon="13.7015058091954"><ele>120.6</ele><time>2026-05-02T12:46:00Z</time></trkpt><trkpt lat="41.514134850047206" lon="13.7014681904059"><ele>120.8</ele><time>2026-05-02T12:46:01Z</time></trkpt><trkpt lat="41.514047398037846" lon="13.7014366990531"><ele>121.0</ele><time>2026-05-02T12:46:02Z</time></trkpt><trkpt lat="41.513954423986426" lon="13.701400153957037"><ele>121.00000000000001</ele><time>2026-05-02T12:46:03Z</time></trkpt><trkpt lat="41.51386750844686" lon="13.701354384514953"><ele>121.0</ele><time>2026-05-02T12:46:04Z</time></trkpt><trkpt lat="41.513780131621125" lon="13.701303065411466"><ele>121.0</ele><time>2026-05-02T12:46:05Z</time></trkpt><trkpt lat="41.51369882469425" lon="13.701246399779755"><ele>121.0</ele><time>2026-05-02T12:46:06Z</time></trkpt><trkpt lat="41.51361831892364" lon="13.701192772416602"><ele>121.00000000000001</ele><time>2026-05-02T12:46:07Z</time></trkpt><trkpt lat="41.51355200575003" lon="13.701160511171846"><ele>121.0</ele><time>2026-05-02T12:46:08Z</time></trkpt><trkpt lat="41.5134874986029" lon="13.701099585689512"><ele>120.83333333333334</ele><time>2026-05-02T12:46:10Z</time></trkpt><trkpt lat="41.51351815405419" lon="13.700982759811122"><ele>120.66666666666667</ele><time>2026-05-02T12:46:11.999Z</time></trkpt><trkpt lat="41.51355751116013" lon="13.700911121552403"><ele>120.5</ele><time>2026-05-02T12:46:12.999Z</time></trkpt><trkpt lat="41.51365155460556" lon="13.70081323539467"><ele>120.33333333333334</ele><time>2026-05-02T12:46:14.999Z</time></trkpt><trkpt lat="41.513724506245204" lon="13.700815672731819"><ele>120.16666666666667</ele><time>2026-05-02T12:46:15.999Z</time></trkpt><trkpt lat="41.51378440700117" lon="13.700856092730824"><ele>120.0</ele><time>2026-05-02T12:46:16.999Z</time></trkpt><trkpt lat="41.51384915195079" lon="13.700892933274806"><ele>120.0</ele><time>2026-05-02T12:46:17.999Z</time></trkpt><trkpt lat="41.51391656448716" lon="13.700922605601017"><ele>120.0</ele><time>2026-05-02T12:46:18.999Z</time></trkpt><trkpt lat="41.513977448408184" lon="13.70094669702677"><ele>120.0</ele><time>2026-05-02T12:46:20Z</time></trkpt><trkpt lat="41.51404589096621" lon="13.700967392547438"><ele>120.0</ele><time>2026-05-02T12:46:21Z</time></trkpt><trkpt lat="41.51411465440593" lon="13.700988531639801"><ele>120.0</ele><time>2026-05-02T12:46:22Z</time></trkpt><trkpt lat="41.51418936905262" lon="13.701014057028532"><ele>120.0</ele><time>2026-05-02T12:46:23Z</time></trkpt><trkpt lat="41.514256702953155" lon="13.701033263085844"><ele>120.0</ele><time>2026-05-02T12:46:24Z</time></trkpt><trkpt lat="41.51432755526037" lon="13.701044750540655"><ele>120.0</ele><time>2026-05-02T12:46:25Z</time></trkpt><trkpt lat="41.51440209635487" lon="13.701052390222527"><ele>120.0</ele><time>2026-05-02T12:46:26Z</time></trkpt><trkpt lat="41.51447654015365" lon="13.701058741074652"><ele>120.0</ele><time>2026-05-02T12:46:27Z</time></trkpt><trkpt lat="41.514554611105666" lon="13.701060281024901"><ele>120.0</ele><time>2026-05-02T12:46:28Z</time></trkpt><trkpt lat="41.51462751500143" lon="13.701058241653437"><ele>120.0</ele><time>2026-05-02T12:46:29Z</time></trkpt><trkpt lat="41.51469938859537" lon="13.70104982375327"><ele>120.0</ele><time>2026-05-02T12:46:30Z</time></trkpt><trkpt lat="41.51483260080863" lon="13.701006907731356"><ele>119.83333333333333</ele><time>2026-05-02T12:46:32Z</time></trkpt><trkpt lat="41.51490564805888" lon="13.700980306432317"><ele>119.66666666666666</ele><time>2026-05-02T12:46:33Z</time></trkpt><trkpt lat="41.514971037390154" lon="13.7009488055923"><ele>119.5</ele><time>2026-05-02T12:46:34Z</time></trkpt><trkpt lat="41.515045161206096" lon="13.700917294422473"><ele>119.33333333333333</ele><time>2026-05-02T12:46:35Z</time></trkpt><trkpt lat="41.515112870832176" lon="13.70087469679794"><ele>119.16666666666666</ele><time>2026-05-02T12:46:36Z</time></trkpt><trkpt lat="41.5151816453985" lon="13.70082824085655"><ele>119.0</ele><time>2026-05-02T12:46:37Z</time></trkpt><trkpt lat="41.51526205148501" lon="13.700779722086745"><ele>118.99999999999999</ele><time>2026-05-02T12:46:38Z</time></trkpt><trkpt lat="41.51534043980571" lon="13.70073080593594"><ele>119.0</ele><time>2026-05-02T12:46:39Z</time></trkpt><trkpt lat="41.5154162470691" lon="13.700683149707535"><ele>119.0</ele><time>2026-05-02T12:46:40Z</time></trkpt><trkpt lat="41.5154834620176" lon="13.700635992100853"><ele>119.0</ele><time>2026-05-02T12:46:41Z</time></trkpt><trkpt lat="41.51555593825054" lon="13.700590355613402"><ele>118.99999999999999</ele><time>2026-05-02T12:46:42Z</time></trkpt><trkpt lat="41.515624803966645" lon="13.700541070083382"><ele>119.0</ele><time>2026-05-02T12:46:43Z</time></trkpt><trkpt lat="41.51569588502429" lon="13.700500520483224"><ele>118.99999999999999</ele><time>2026-05-02T12:46:44Z</time></trkpt><trkpt lat="41.51576604731567" lon="13.700451854002978"><ele>119.0</ele><time>2026-05-02T12:46:45Z</time></trkpt><trkpt lat="41.5158396502441" lon="13.700409077954744"><ele>119.0</ele><time>2026-05-02T12:46:46Z</time></trkpt><trkpt lat="41.51590636479248" lon="13.700352915473406"><ele>119.0</ele><time>2026-05-02T12:46:47Z</time></trkpt><trkpt lat="41.51599106136802" lon="13.700302142525786"><ele>118.99999999999999</ele><time>2026-05-02T12:46:48Z</time></trkpt><trkpt lat="41.516061023668684" lon="13.700268256586767"><ele>119.0</ele><time>2026-05-02T12:46:49Z</time></trkpt><trkpt lat="41.51612287372944" lon="13.700224186738671"><ele>119.0</ele><time>2026-05-02T12:46:50Z</time></trkpt><trkpt lat="41.51618657750901" lon="13.700183641653679"><ele>119.0</ele><time>2026-05-02T12:46:51Z</time></trkpt><trkpt lat="41.516249518573595" lon="13.700144289530941"><ele>119.0</ele><time>2026-05-02T12:46:52Z</time></trkpt><trkpt lat="41.51630356084141" lon="13.700091214777276"><ele>119.0</ele><time>2026-05-02T12:46:53Z</time></trkpt><trkpt lat="41.516351761484174" lon="13.700029423956265"><ele>119.0</ele><time>2026-05-02T12:46:54Z</time></trkpt><trkpt lat="41.51640045006088" lon="13.699955471394155"><ele>119.0</ele><time>2026-05-02T12:46:55Z</time></trkpt><trkpt lat="41.516455734990345" lon="13.699884599546404"><ele>119.0</ele><time>2026-05-02T12:46:56Z</time></trkpt><trkpt lat="41.51650493317263" lon="13.699807436456107"><ele>119.49999999999999</ele><time>2026-05-02T12:46:57Z</time></trkpt><trkpt lat="41.51654472444408" lon="13.699716414393118"><ele>120.0</ele><time>2026-05-02T12:46:58Z</time></trkpt><trkpt lat="41.51658799133804" lon="13.699617499522487"><ele>120.5</ele><time>2026-05-02T12:46:59Z</time></trkpt><trkpt lat="41.51663010855225" lon="13.69952798494118"><ele>121.0</ele><time>2026-05-02T12:47:00Z</time></trkpt><trkpt lat="41.51666597436898" lon="13.699440615536444"><ele>121.49999999999999</ele><time>2026-05-02T12:47:01Z</time></trkpt><trkpt lat="41.516688797297554" lon="13.699332665090957"><ele>122.0</ele><time>2026-05-02T12:47:02Z</time></trkpt><trkpt lat="41.51671646451913" lon="13.6992296125923"><ele>121.99999999999999</ele><time>2026-05-02T12:47:03Z</time></trkpt><trkpt lat="41.51674314938975" lon="13.699134393655411"><ele>122.0</ele><time>2026-05-02T12:47:04Z</time></trkpt><trkpt lat="41.516767424604765" lon="13.699044584097383"><ele>121.99999999999999</ele><time>2026-05-02T12:47:05Z</time></trkpt><trkpt lat="41.51680892409916" lon="13.69895003887579"><ele>121.99999999999999</ele><time>2026-05-02T12:47:06Z</time></trkpt><trkpt lat="41.51684157237997" lon="13.698855579571296"><ele>122.0</ele><time>2026-05-02T12:47:07Z</time></trkpt><trkpt lat="41.51688071989549" lon="13.698775749711892"><ele>121.99999999999999</ele><time>2026-05-02T12:47:08Z</time></trkpt><trkpt lat="41.5169113455045" lon="13.69869887866005"><ele>121.99999999999999</ele><time>2026-05-02T12:47:09Z</time></trkpt><trkpt lat="41.516943324296264" lon="13.698626043144648"><ele>121.99999999999999</ele><time>2026-05-02T12:47:10Z</time></trkpt><trkpt lat="41.51697876464653" lon="13.698552759641752"><ele>122.0</ele><time>2026-05-02T12:47:11Z</time></trkpt><trkpt lat="41.5170182006421" lon="13.698486079863706"><ele>122.0</ele><time>2026-05-02T12:47:12Z</time></trkpt><trkpt lat="41.51707534097907" lon="13.698367568576774"><ele>122.0</ele><time>2026-05-02T12:47:14Z</time></trkpt><trkpt lat="41.5171201081533" lon="13.698254026445742"><ele>121.99999999999999</ele><time>2026-05-02T12:47:16Z</time></trkpt><trkpt lat="41.517174601282775" lon="13.69815343980363"><ele>122.0</ele><time>2026-05-02T12:47:18Z</time></trkpt><trkpt lat="41.51721327831263" lon="13.69807710237349"><ele>122.83333333333333</ele><time>2026-05-02T12:47:20Z</time></trkpt><trkpt lat="41.517293393347835" lon="13.698054541020534"><ele>123.66666666666666</ele><time>2026-05-02T12:47:23Z</time></trkpt><trkpt lat="41.51738440806876" lon="13.698154704316531"><ele>124.5</ele><time>2026-05-02T12:47:25Z</time></trkpt><trkpt lat="41.51744196560539" lon="13.698209242032311"><ele>125.33333333333334</ele><time>2026-05-02T12:47:26Z</time></trkpt><trkpt lat="41.51750055029177" lon="13.69826208487212"><ele>126.16666666666667</ele><time>2026-05-02T12:47:27Z</time></trkpt><trkpt lat="41.517560983901035" lon="13.698328383980924"><ele>127.0</ele><time>2026-05-02T12:47:28Z</time></trkpt><trkpt lat="41.5176272343118" lon="13.698389174709423"><ele>127.00000000000001</ele><time>2026-05-02T12:47:29Z</time></trkpt><trkpt lat="41.517696063252785" lon="13.698440033042765"><ele>127.0</ele><time>2026-05-02T12:47:30Z</time></trkpt><trkpt lat="41.517762752762685" lon="13.698497829642948"><ele>127.0</ele><time>2026-05-02T12:47:31Z</time></trkpt><trkpt lat="41.517823923130315" lon="13.698547994741288"><ele>127.0</ele><time>2026-05-02T12:47:32Z</time></trkpt><trkpt lat="41.51788019352566" lon="13.698601040742538"><ele>127.00000000000001</ele><time>2026-05-02T12:47:33Z</time></trkpt><trkpt lat="41.51794098906189" lon="13.698649353560164"><ele>127.0</ele><time>2026-05-02T12:47:34Z</time></trkpt><trkpt lat="41.51803418179175" lon="13.698731691862056"><ele>127.50000000000001</ele><time>2026-05-02T12:47:36Z</time></trkpt><trkpt lat="41.518087015591355" lon="13.698785021318535"><ele>128.0</ele><time>2026-05-02T12:47:37Z</time></trkpt><trkpt lat="41.51814339113887" lon="13.698837700169003"><ele>128.5</ele><time>2026-05-02T12:47:38Z</time></trkpt><trkpt lat="41.51821646308274" lon="13.698906441442329"><ele>129.0</ele><time>2026-05-02T12:47:39Z</time></trkpt><trkpt lat="41.518282613539675" lon="13.69895807124462"><ele>129.5</ele><time>2026-05-02T12:47:40Z</time></trkpt><trkpt lat="41.518348416850195" lon="13.699010376174936"><ele>130.0</ele><time>2026-05-02T12:47:41Z</time></trkpt><trkpt lat="41.51841439022133" lon="13.699062491745682"><ele>130.0</ele><time>2026-05-02T12:47:42Z</time></trkpt><trkpt lat="41.51847640864298" lon="13.699117284332303"><ele>130.0</ele><time>2026-05-02T12:47:43Z</time></trkpt><trkpt lat="41.51854713169433" lon="13.699169749005632"><ele>130.0</ele><time>2026-05-02T12:47:44Z</time></trkpt><trkpt lat="41.51860891867933" lon="13.699219442221796"><ele>130.0</ele><time>2026-05-02T12:47:45Z</time></trkpt><trkpt lat="41.518675863123214" lon="13.699276829427758"><ele>130.0</ele><time>2026-05-02T12:47:46Z</time></trkpt><trkpt lat="41.51874004621543" lon="13.699333592331532"><ele>130.0</ele><time>2026-05-02T12:47:47Z</time></trkpt><trkpt lat="41.51880385022809" lon="13.699387656257393"><ele>130.33333333333334</ele><time>2026-05-02T12:47:48Z</time></trkpt><trkpt lat="41.518868634445475" lon="13.699444765357766"><ele>130.66666666666669</ele><time>2026-05-02T12:47:49Z</time></trkpt><trkpt lat="41.518935227633925" lon="13.699502531673598"><ele>131.0</ele><time>2026-05-02T12:47:50Z</time></trkpt><trkpt lat="41.5190003013726" lon="13.699558645636655"><ele>131.33333333333334</ele><time>2026-05-02T12:47:51Z</time></trkpt><trkpt lat="41.51906728630985" lon="13.699632588957154"><ele>131.66666666666666</ele><time>2026-05-02T12:47:52Z</time></trkpt><trkpt lat="41.51912091641869" lon="13.699692204680927"><ele>132.0</ele><time>2026-05-02T12:47:53Z</time></trkpt><trkpt lat="41.5191804570747" lon="13.699755888368761"><ele>132.0</ele><time>2026-05-02T12:47:54Z</time></trkpt><trkpt lat="41.51923446398884" lon="13.699817857704891"><ele>132.0</ele><time>2026-05-02T12:47:55Z</time></trkpt><trkpt lat="41.51929334763215" lon="13.699887545843916"><ele>132.0</ele><time>2026-05-02T12:47:56Z</time></trkpt><trkpt lat="41.51935415623409" lon="13.699954683656587"><ele>132.0</ele><time>2026-05-02T12:47:57Z</time></trkpt><trkpt lat="41.51941745783205" lon="13.700007034773849"><ele>132.0</ele><time>2026-05-02T12:47:58Z</time></trkpt><trkpt lat="41.51948453561853" lon="13.700072007671"><ele>132.0</ele><time>2026-05-02T12:47:59Z</time></trkpt><trkpt lat="41.51954254019991" lon="13.700136249225482"><ele>132.57142857142856</ele><time>2026-05-02T12:48:00Z</time></trkpt><trkpt lat="41.51960564397316" lon="13.700188902856873"><ele>133.14285714285714</ele><time>2026-05-02T12:48:01Z</time></trkpt><trkpt lat="41.51966928391602" lon="13.70024700252578"><ele>133.71428571428572</ele><time>2026-05-02T12:48:02Z</time></trkpt><trkpt lat="41.51973049871332" lon="13.700305991814709"><ele>134.28571428571428</ele><time>2026-05-02T12:48:03Z</time></trkpt><trkpt lat="41.5197877755841" lon="13.70036243946922"><ele>134.85714285714286</ele><time>2026-05-02T12:48:04Z</time></trkpt><trkpt lat="41.51984721167768" lon="13.700410573740484"><ele>135.42857142857142</ele><time>2026-05-02T12:48:05Z</time></trkpt><trkpt lat="41.51990947997267" lon="13.700465687678797"><ele>136.0</ele><time>2026-05-02T12:48:06Z</time></trkpt><trkpt lat="41.519971635009384" lon="13.700530417603305"><ele>136.0</ele><time>2026-05-02T12:48:07Z</time></trkpt><trkpt lat="41.52003838984084" lon="13.700604039415587"><ele>136.0</ele><time>2026-05-02T12:48:08Z</time></trkpt><trkpt lat="41.520101187089004" lon="13.700651516531737"><ele>136.0</ele><time>2026-05-02T12:48:09Z</time></trkpt><trkpt lat="41.5201693024618" lon="13.700708550501487"><ele>136.0</ele><time>2026-05-02T12:48:10Z</time></trkpt><trkpt lat="41.5202271202108" lon="13.700763538709888"><ele>136.0</ele><time>2026-05-02T12:48:11Z</time></trkpt><trkpt lat="41.520286318607454" lon="13.700811582208882"><ele>136.0</ele><time>2026-05-02T12:48:12Z</time></trkpt><trkpt lat="41.52037763384737" lon="13.700887785505243"><ele>137.14285714285714</ele><time>2026-05-02T12:48:14Z</time></trkpt><trkpt lat="41.52044384026663" lon="13.700944691258286"><ele>138.28571428571428</ele><time>2026-05-02T12:48:16Z</time></trkpt><trkpt lat="41.520517154941025" lon="13.701001375895313"><ele>139.42857142857144</ele><time>2026-05-02T12:48:18.999Z</time></trkpt><trkpt lat="41.52058001685958" lon="13.701068336843747"><ele>140.57142857142856</ele><time>2026-05-02T12:48:23.999Z</time></trkpt><trkpt lat="41.52063613053742" lon="13.701109400208516"><ele>141.71428571428572</ele><time>2026-05-02T12:48:26.999Z</time></trkpt><trkpt lat="41.52069814353209" lon="13.701152447705311"><ele>142.85714285714286</ele><time>2026-05-02T12:48:29.999Z</time></trkpt><trkpt lat="41.520758294749484" lon="13.701196226369031"><ele>144.0</ele><time>2026-05-02T12:48:33.999Z</time></trkpt><trkpt lat="41.52082118845267" lon="13.701235590052567"><ele>144.2</ele><time>2026-05-02T12:48:48Z</time></trkpt><trkpt lat="41.520897680770425" lon="13.701299157141905"><ele>144.4</ele><time>2026-05-02T12:48:50Z</time></trkpt><trkpt lat="41.52100983338185" lon="13.70135172255295"><ele>144.6</ele><time>2026-05-02T12:48:52Z</time></trkpt><trkpt lat="41.52107485523297" lon="13.701370908738829"><ele>144.8</ele><time>2026-05-02T12:48:53Z</time></trkpt><trkpt lat="41.52121233190788" lon="13.701419544742043"><ele>145.0</ele><time>2026-05-02T12:48:55Z</time></trkpt><trkpt lat="41.52128213750991" lon="13.70145023952589"><ele>145.85714285714286</ele><time>2026-05-02T12:48:56Z</time></trkpt><trkpt lat="41.5213510552368" lon="13.701480045298496"><ele>146.71428571428572</ele><time>2026-05-02T12:48:57Z</time></trkpt><trkpt lat="41.52142465066162" lon="13.701506910532748"><ele>147.57142857142858</ele><time>2026-05-02T12:48:58Z</time></trkpt><trkpt lat="41.52149720577248" lon="13.701535954645266"><ele>148.42857142857144</ele><time>2026-05-02T12:48:59Z</time></trkpt><trkpt lat="41.52156599200276" lon="13.701561007677896"><ele>149.28571428571428</ele><time>2026-05-02T12:49:00Z</time></trkpt><trkpt lat="41.52163683957051" lon="13.701580964286876"><ele>150.14285714285717</ele><time>2026-05-02T12:49:01Z</time></trkpt><trkpt lat="41.52170556314509" lon="13.701613170973324"><ele>151.0</ele><time>2026-05-02T12:49:02Z</time></trkpt><trkpt lat="41.52177224260212" lon="13.70164809523509"><ele>151.00000000000003</ele><time>2026-05-02T12:49:03Z</time></trkpt><trkpt lat="41.52184028370328" lon="13.701676604626552"><ele>151.0</ele><time>2026-05-02T12:49:04Z</time></trkpt><trkpt lat="41.5219021320924" lon="13.701702480812651"><ele>151.0</ele><time>2026-05-02T12:49:05Z</time></trkpt><trkpt lat="41.521968503231655" lon="13.701731844051169"><ele>151.0</ele><time>2026-05-02T12:49:06Z</time></trkpt><trkpt lat="41.52203064531261" lon="13.70176916258474"><ele>151.0</ele><time>2026-05-02T12:49:07Z</time></trkpt><trkpt lat="41.52209108778819" lon="13.701800000428422"><ele>151.00000000000003</ele><time>2026-05-02T12:49:08Z</time></trkpt><trkpt lat="41.52219236584591" lon="13.701830021208385"><ele>151.0</ele><time>2026-05-02T12:49:10Z</time></trkpt><trkpt lat="41.52229983541938" lon="13.701779265385683"><ele>151.71428571428572</ele><time>2026-05-02T12:49:12Z</time></trkpt><trkpt lat="41.52233628125783" lon="13.701709112901781"><ele>152.42857142857144</ele><time>2026-05-02T12:49:13Z</time></trkpt><trkpt lat="41.52237530622928" lon="13.701631900524214"><ele>153.14285714285717</ele><time>2026-05-02T12:49:14Z</time></trkpt><trkpt lat="41.52241848886313" lon="13.701550604187078"><ele>153.85714285714286</ele><time>2026-05-02T12:49:15Z</time></trkpt><trkpt lat="41.52246736278612" lon="13.701475937218405"><ele>154.57142857142856</ele><time>2026-05-02T12:49:16Z</time></trkpt><trkpt lat="41.52251309331574" lon="13.70140889841562"><ele>155.2857142857143</ele><time>2026-05-02T12:49:17Z</time></trkpt><trkpt lat="41.522560023489135" lon="13.701318606022562"><ele>156.0</ele><time>2026-05-02T12:49:18Z</time></trkpt><trkpt lat="41.52261319573062" lon="13.701237090480944"><ele>156.0</ele><time>2026-05-02T12:49:19Z</time></trkpt><trkpt lat="41.522665387548045" lon="13.701155558058876"><ele>156.0</ele><time>2026-05-02T12:49:20Z</time></trkpt><trkpt lat="41.52271965635224" lon="13.701075572926918"><ele>156.0</ele><time>2026-05-02T12:49:21Z</time></trkpt><trkpt lat="41.52277267746684" lon="13.701001074711943"><ele>156.0</ele><time>2026-05-02T12:49:22Z</time></trkpt><trkpt lat="41.52282241631921" lon="13.70091679869197"><ele>156.0</ele><time>2026-05-02T12:49:23Z</time></trkpt><trkpt lat="41.52287239326346" lon="13.70083276106667"><ele>156.0</ele><time>2026-05-02T12:49:24Z</time></trkpt><trkpt lat="41.52292267817267" lon="13.700752058919386"><ele>157.33333333333334</ele><time>2026-05-02T12:49:25Z</time></trkpt><trkpt lat="41.52297318052467" lon="13.700670965804926"><ele>158.66666666666666</ele><time>2026-05-02T12:49:26Z</time></trkpt><trkpt lat="41.523024381056814" lon="13.700597223751346"><ele>160.0</ele><time>2026-05-02T12:49:27Z</time></trkpt><trkpt lat="41.52307333429758" lon="13.700514912546087"><ele>161.33333333333331</ele><time>2026-05-02T12:49:28Z</time></trkpt><trkpt lat="41.523128832007956" lon="13.700440093941516"><ele>162.66666666666666</ele><time>2026-05-02T12:49:29Z</time></trkpt><trkpt lat="41.52317773599704" lon="13.70035990829959"><ele>164.0</ele><time>2026-05-02T12:49:30Z</time></trkpt><trkpt lat="41.523230632460375" lon="13.700282518241043"><ele>163.83333333333331</ele><time>2026-05-02T12:49:31Z</time></trkpt><trkpt lat="41.5232832808587" lon="13.700199300141692"><ele>163.66666666666666</ele><time>2026-05-02T12:49:32Z</time></trkpt><trkpt lat="41.523336868797834" lon="13.700117137191596"><ele>163.5</ele><time>2026-05-02T12:49:33Z</time></trkpt><trkpt lat="41.523387866134605" lon="13.700031858351416"><ele>163.33333333333334</ele><time>2026-05-02T12:49:34Z</time></trkpt><trkpt lat="41.52344326273004" lon="13.699956954552757"><ele>163.16666666666669</ele><time>2026-05-02T12:49:35Z</time></trkpt><trkpt lat="41.523489295328744" lon="13.699882334236401"><ele>163.0</ele><time>2026-05-02T12:49:36Z</time></trkpt><trkpt lat="41.523541673803194" lon="13.699798587660782"><ele>163.0</ele><time>2026-05-02T12:49:37Z</time></trkpt><trkpt lat="41.523597281833105" lon="13.699736417545823"><ele>163.0</ele><time>2026-05-02T12:49:38Z</time></trkpt><trkpt lat="41.5236528458938" lon="13.69966343565898"><ele>163.0</ele><time>2026-05-02T12:49:39Z</time></trkpt><trkpt lat="41.523707312051755" lon="13.699593670307866"><ele>163.0</ele><time>2026-05-02T12:49:40Z</time></trkpt><trkpt lat="41.5237612121208" lon="13.699530295875121"><ele>163.0</ele><time>2026-05-02T12:49:41Z</time></trkpt><trkpt lat="41.52381492302401" lon="13.69947108784472"><ele>163.0</ele><time>2026-05-02T12:49:42Z</time></trkpt><trkpt lat="41.523871268151716" lon="13.699397887339545"><ele>163.0</ele><time>2026-05-02T12:49:43Z</time></trkpt><trkpt lat="41.52392058234577" lon="13.699329261755874"><ele>164.16666666666669</ele><time>2026-05-02T12:49:44Z</time></trkpt><trkpt lat="41.523987382006325" lon="13.69926335574221"><ele>165.33333333333334</ele><time>2026-05-02T12:49:45Z</time></trkpt><trkpt lat="41.524045787761985" lon="13.699201524128856"><ele>166.5</ele><time>2026-05-02T12:49:46Z</time></trkpt><trkpt lat="41.52410552789079" lon="13.699128421761003"><ele>167.66666666666666</ele><time>2026-05-02T12:49:47Z</time></trkpt><trkpt lat="41.52415672673756" lon="13.699062096026106"><ele>168.83333333333331</ele><time>2026-05-02T12:49:48Z</time></trkpt><trkpt lat="41.52420677772761" lon="13.698987306078894"><ele>170.0</ele><time>2026-05-02T12:49:49Z</time></trkpt><trkpt lat="41.524254490837414" lon="13.698906698887026"><ele>170.0</ele><time>2026-05-02T12:49:50Z</time></trkpt><trkpt lat="41.52430574920783" lon="13.698828368386522"><ele>170.0</ele><time>2026-05-02T12:49:51Z</time></trkpt><trkpt lat="41.52435168451808" lon="13.698757286770517"><ele>170.0</ele><time>2026-05-02T12:49:52Z</time></trkpt><trkpt lat="41.52439502203447" lon="13.698689343212584"><ele>170.0</ele><time>2026-05-02T12:49:53Z</time></trkpt><trkpt lat="41.52442972494643" lon="13.698613139927204"><ele>170.0</ele><time>2026-05-02T12:49:54Z</time></trkpt><trkpt lat="41.52455649234399" lon="13.698595701561604"><ele>170.0</ele><time>2026-05-02T12:49:56Z</time></trkpt><trkpt lat="41.524620826925094" lon="13.698652578978514"><ele>170.83333333333331</ele><time>2026-05-02T12:49:57Z</time></trkpt><trkpt lat="41.52468346837591" lon="13.69872871775047"><ele>171.66666666666666</ele><time>2026-05-02T12:49:58Z</time></trkpt><trkpt lat="41.52475058742343" lon="13.69876916754905"><ele>172.5</ele><time>2026-05-02T12:49:59Z</time></trkpt><trkpt lat="41.52482606756592" lon="13.698750455084298"><ele>173.33333333333334</ele><time>2026-05-02T12:50:00Z</time></trkpt><trkpt lat="41.524893894912566" lon="13.698673520887708"><ele>174.16666666666669</ele><time>2026-05-02T12:50:01Z</time></trkpt><trkpt lat="41.524932612179036" lon="13.69856596576579"><ele>175.0</ele><time>2026-05-02T12:50:02Z</time></trkpt><trkpt lat="41.52495650491156" lon="13.6984700221242"><ele>175.0</ele><time>2026-05-02T12:50:03Z</time></trkpt><trkpt lat="41.52507059719416" lon="13.698461363124856"><ele>175.0</ele><time>2026-05-02T12:50:05Z</time></trkpt><trkpt lat="41.525128499055214" lon="13.69852494571798"><ele>175.0</ele><time>2026-05-02T12:50:06Z</time></trkpt><trkpt lat="41.52518203896145" lon="13.698576592889383"><ele>175.0</ele><time>2026-05-02T12:50:07Z</time></trkpt><trkpt lat="41.5252919634378" lon="13.698671419654778"><ele>175.0</ele><time>2026-05-02T12:50:09Z</time></trkpt><trkpt lat="41.525393333273485" lon="13.698758789119925"><ele>176.5</ele><time>2026-05-02T12:50:11Z</time></trkpt><trkpt lat="41.52551022207886" lon="13.69876091579879"><ele>178.0</ele><time>2026-05-02T12:50:13Z</time></trkpt><trkpt lat="41.52556188866497" lon="13.698701386093958"><ele>179.5</ele><time>2026-05-02T12:50:14Z</time></trkpt><trkpt lat="41.525592116032826" lon="13.698603595691829"><ele>181.0</ele><time>2026-05-02T12:50:15Z</time></trkpt><trkpt lat="41.52560819318789" lon="13.698515764634019"><ele>182.5</ele><time>2026-05-02T12:50:16Z</time></trkpt><trkpt lat="41.525647270184166" lon="13.698383369887162"><ele>184.0</ele><time>2026-05-02T12:50:18Z</time></trkpt><trkpt lat="41.525681685778274" lon="13.698290072203243"><ele>184.0</ele><time>2026-05-02T12:50:20Z</time></trkpt><trkpt lat="41.525724288057866" lon="13.698193980993965"><ele>184.0</ele><time>2026-05-02T12:50:24.999Z</time></trkpt><trkpt lat="41.52576495544027" lon="13.698053546101779"><ele>184.0</ele><time>2026-05-02T12:50:26.999Z</time></trkpt><trkpt lat="41.525821139023414" lon="13.697913957051856"><ele>184.0</ele><time>2026-05-02T12:50:28.999Z</time></trkpt><trkpt lat="41.525845821767625" lon="13.697833270575869"><ele>184.0</ele><time>2026-05-02T12:50:29.999Z</time></trkpt><trkpt lat="41.52587386682376" lon="13.697737637746851"><ele>183.71428571428572</ele><time>2026-05-02T12:50:30.999Z</time></trkpt><trkpt lat="41.52590728430856" lon="13.697647018951509"><ele>183.42857142857142</ele><time>2026-05-02T12:50:31.999Z</time></trkpt><trkpt lat="41.52593595271989" lon="13.697564529657502"><ele>183.14285714285714</ele><time>2026-05-02T12:50:32.999Z</time></trkpt><trkpt lat="41.52596580482739" lon="13.697481312780655"><ele>182.85714285714286</ele><time>2026-05-02T12:50:33.999Z</time></trkpt><trkpt lat="41.52599591238136" lon="13.697397450520706"><ele>182.57142857142856</ele><time>2026-05-02T12:50:34.999Z</time></trkpt><trkpt lat="41.52602662972405" lon="13.697323460158175"><ele>182.28571428571428</ele><time>2026-05-02T12:50:35.999Z</time></trkpt><trkpt lat="41.52605893109122" lon="13.697239963701826"><ele>182.0</ele><time>2026-05-02T12:50:36.999Z</time></trkpt><trkpt lat="41.526087486919465" lon="13.697155883605244"><ele>182.0</ele><time>2026-05-02T12:50:37.999Z</time></trkpt><trkpt lat="41.52611596010249" lon="13.697067879153034"><ele>182.0</ele><time>2026-05-02T12:50:38.999Z</time></trkpt><trkpt lat="41.52614384707857" lon="13.696978840428699"><ele>182.0</ele><time>2026-05-02T12:50:39.999Z</time></trkpt><trkpt lat="41.52617355649636" lon="13.696889180235994"><ele>182.0</ele><time>2026-05-02T12:50:40.999Z</time></trkpt><trkpt lat="41.52621244060863" lon="13.696797351319358"><ele>182.0</ele><time>2026-05-02T12:50:41.999Z</time></trkpt><trkpt lat="41.52624826112716" lon="13.696707955408034"><ele>182.0</ele><time>2026-05-02T12:50:42.999Z</time></trkpt><trkpt lat="41.52628709712666" lon="13.696620094800284"><ele>182.0</ele><time>2026-05-02T12:50:43.999Z</time></trkpt><trkpt lat="41.52632062920581" lon="13.69652820720359"><ele>183.2</ele><time>2026-05-02T12:50:44.999Z</time></trkpt><trkpt lat="41.52635268886727" lon="13.696447393183908"><ele>184.39999999999998</ele><time>2026-05-02T12:50:45.999Z</time></trkpt><trkpt lat="41.52640368549199" lon="13.696307907207801"><ele>185.60000000000002</ele><time>2026-05-02T12:50:47.999Z</time></trkpt><trkpt lat="41.52646611448898" lon="13.696162028000886"><ele>186.8</ele><time>2026-05-02T12:50:50.999Z</time></trkpt><trkpt lat="41.52652624652227" lon="13.696136271627875"><ele>188.0</ele><time>2026-05-02T12:50:55Z</time></trkpt><trkpt lat="41.52660465381137" lon="13.696201997450018"><ele>188.0</ele><time>2026-05-02T12:50:58Z</time></trkpt><trkpt lat="41.52669816510973" lon="13.696277574018374"><ele>188.0</ele><time>2026-05-02T12:51:00Z</time></trkpt><trkpt lat="41.526781270557564" lon="13.696336678382377"><ele>188.0</ele><time>2026-05-02T12:51:02Z</time></trkpt><trkpt lat="41.52686545159523" lon="13.696401396142635"><ele>188.0</ele><time>2026-05-02T12:51:04Z</time></trkpt><trkpt lat="41.52697131804128" lon="13.696475237487089"><ele>188.0</ele><time>2026-05-02T12:51:06Z</time></trkpt><trkpt lat="41.527083515356786" lon="13.696561052691468"><ele>189.60000000000002</ele><time>2026-05-02T12:51:08Z</time></trkpt><trkpt lat="41.52720304456032" lon="13.696633265414903"><ele>191.20000000000002</ele><time>2026-05-02T12:51:10Z</time></trkpt><trkpt lat="41.52726098170959" lon="13.696668000611933"><ele>192.8</ele><time>2026-05-02T12:51:11Z</time></trkpt><trkpt lat="41.52736385316276" lon="13.696732423153831"><ele>194.4</ele><time>2026-05-02T12:51:13Z</time></trkpt><trkpt lat="41.527425256696006" lon="13.696772352847983"><ele>196.0</ele><time>2026-05-02T12:51:14Z</time></trkpt><trkpt lat="41.52753339516207" lon="13.696832146629292"><ele>196.0</ele><time>2026-05-02T12:51:16Z</time></trkpt><trkpt lat="41.52764653187658" lon="13.696908276505672"><ele>196.0</ele><time>2026-05-02T12:51:18Z</time></trkpt><trkpt lat="41.5277555218386" lon="13.696978256977896"><ele>196.0</ele><time>2026-05-02T12:51:20Z</time></trkpt><trkpt lat="41.527870358245806" lon="13.697058766262321"><ele>196.0</ele><time>2026-05-02T12:51:22Z</time></trkpt><trkpt lat="41.527930909230825" lon="13.69709660796729"><ele>196.0</ele><time>2026-05-02T12:51:23Z</time></trkpt><trkpt lat="41.52798851402447" lon="13.697132926577137"><ele>197.8</ele><time>2026-05-02T12:51:24Z</time></trkpt><trkpt lat="41.52810522649509" lon="13.697201835488977"><ele>199.60000000000002</ele><time>2026-05-02T12:51:26Z</time></trkpt><trkpt lat="41.5281631362803" lon="13.697236170026086"><ele>201.4</ele><time>2026-05-02T12:51:27Z</time></trkpt><trkpt lat="41.528228512325214" lon="13.69727561004134"><ele>203.2</ele><time>2026-05-02T12:51:28Z</time></trkpt><trkpt lat="41.52834199550588" lon="13.69734443365153"><ele>205.0</ele><time>2026-05-02T12:51:30Z</time></trkpt><trkpt lat="41.52840125038688" lon="13.697377971512651"><ele>205.0</ele><time>2026-05-02T12:51:31Z</time></trkpt><trkpt lat="41.52846162158872" lon="13.697414402060316"><ele>205.0</ele><time>2026-05-02T12:51:32Z</time></trkpt><trkpt lat="41.5285265493566" lon="13.697465376665695"><ele>205.0</ele><time>2026-05-02T12:51:33Z</time></trkpt><trkpt lat="41.52862597321287" lon="13.697540339517923"><ele>205.0</ele><time>2026-05-02T12:51:35Z</time></trkpt><trkpt lat="41.528730401038516" lon="13.697614001689347"><ele>205.0</ele><time>2026-05-02T12:51:37Z</time></trkpt><trkpt lat="41.52883361344971" lon="13.697688519293939"><ele>206.25</ele><time>2026-05-02T12:51:39Z</time></trkpt><trkpt lat="41.52893905474156" lon="13.697750446776428"><ele>207.5</ele><time>2026-05-02T12:51:41Z</time></trkpt><trkpt lat="41.529048064155404" lon="13.697819611970777"><ele>208.75</ele><time>2026-05-02T12:51:43Z</time></trkpt><trkpt lat="41.52915890588571" lon="13.6978938059345"><ele>210.0</ele><time>2026-05-02T12:51:45Z</time></trkpt><trkpt lat="41.52926500809448" lon="13.697967458797098"><ele>211.0</ele><time>2026-05-02T12:51:47Z</time></trkpt><trkpt lat="41.52932242229242" lon="13.6980034006386"><ele>212.0</ele><time>2026-05-02T12:51:48Z</time></trkpt><trkpt lat="41.5293795692626" lon="13.698041596568531"><ele>213.0</ele><time>2026-05-02T12:51:49Z</time></trkpt><trkpt lat="41.5294378203543" lon="13.698088059969255"><ele>214.0</ele><time>2026-05-02T12:51:50Z</time></trkpt><trkpt lat="41.52949659749007" lon="13.698127052510705"><ele>215.0</ele><time>2026-05-02T12:51:51Z</time></trkpt><trkpt lat="41.52960495683784" lon="13.698215563883778"><ele>216.0</ele><time>2026-05-02T12:51:53Z</time></trkpt><trkpt lat="41.52966609423206" lon="13.698241173975314"><ele>217.20000000000002</ele><time>2026-05-02T12:51:54Z</time></trkpt><trkpt lat="41.52972216779332" lon="13.69828270548618"><ele>218.40000000000003</ele><time>2026-05-02T12:51:55Z</time></trkpt><trkpt lat="41.52983794727099" lon="13.698362587219632"><ele>219.6</ele><time>2026-05-02T12:51:57Z</time></trkpt><trkpt lat="41.52989758729941" lon="13.698389661379506"><ele>220.8</ele><time>2026-05-02T12:51:58Z</time></trkpt><trkpt lat="41.53000973651545" lon="13.698456435427376"><ele>222.0</ele><time>2026-05-02T12:52:00Z</time></trkpt><trkpt lat="41.53011737488331" lon="13.698504119466346"><ele>222.0</ele><time>2026-05-02T12:52:02Z</time></trkpt><trkpt lat="41.53020329057898" lon="13.698576957093746"><ele>222.0</ele><time>2026-05-02T12:52:04Z</time></trkpt><trkpt lat="41.530293803190425" lon="13.698652853849504"><ele>222.0</ele><time>2026-05-02T12:52:06Z</time></trkpt><trkpt lat="41.53040912675979" lon="13.698675775289205"><ele>222.0</ele><time>2026-05-02T12:52:08Z</time></trkpt><trkpt lat="41.53052306437572" lon="13.698720389336577"><ele>222.0</ele><time>2026-05-02T12:52:10Z</time></trkpt><trkpt lat="41.53063781647873" lon="13.698750889653931"><ele>222.66666666666666</ele><time>2026-05-02T12:52:12Z</time></trkpt><trkpt lat="41.53074827413055" lon="13.698702635019087"><ele>223.33333333333331</ele><time>2026-05-02T12:52:14Z</time></trkpt><trkpt lat="41.530813799891206" lon="13.698577767608269"><ele>224.0</ele><time>2026-05-02T12:52:16Z</time></trkpt><trkpt lat="41.530842991053284" lon="13.698502541956532"><ele>224.66666666666666</ele><time>2026-05-02T12:52:17Z</time></trkpt><trkpt lat="41.53085435653558" lon="13.698406594164977"><ele>225.33333333333331</ele><time>2026-05-02T12:52:18Z</time></trkpt><trkpt lat="41.53087638253722" lon="13.698311710492447"><ele>226.0</ele><time>2026-05-02T12:52:19Z</time></trkpt><trkpt lat="41.530903497886044" lon="13.6982094027077"><ele>225.99999999999997</ele><time>2026-05-02T12:52:20Z</time></trkpt><trkpt lat="41.53093220306991" lon="13.69810432805189"><ele>226.0</ele><time>2026-05-02T12:52:21Z</time></trkpt><trkpt lat="41.53095944409139" lon="13.698003411059764"><ele>226.0</ele><time>2026-05-02T12:52:22Z</time></trkpt><trkpt lat="41.53098356399211" lon="13.697910007595047"><ele>226.0</ele><time>2026-05-02T12:52:23Z</time></trkpt><trkpt lat="41.53100274156031" lon="13.697811706456678"><ele>225.99999999999997</ele><time>2026-05-02T12:52:24Z</time></trkpt><trkpt lat="41.531004746766634" lon="13.697718570022383"><ele>226.0</ele><time>2026-05-02T12:52:25Z</time></trkpt><trkpt lat="41.53099558646279" lon="13.697623739704154"><ele>225.57142857142858</ele><time>2026-05-02T12:52:26Z</time></trkpt><trkpt lat="41.5309777579411" lon="13.697532504509285"><ele>225.14285714285714</ele><time>2026-05-02T12:52:27Z</time></trkpt><trkpt lat="41.53094787979802" lon="13.697453582423456"><ele>224.71428571428572</ele><time>2026-05-02T12:52:28Z</time></trkpt><trkpt lat="41.53091541060962" lon="13.697380074135419"><ele>224.28571428571428</ele><time>2026-05-02T12:52:28.999Z</time></trkpt><trkpt lat="41.53088996686024" lon="13.6972997337497"><ele>223.85714285714283</ele><time>2026-05-02T12:52:29.999Z</time></trkpt><trkpt lat="41.53086811317851" lon="13.697218893137366"><ele>223.42857142857142</ele><time>2026-05-02T12:52:30.999Z</time></trkpt><trkpt lat="41.53083138891595" lon="13.697138424506075"><ele>223.0</ele><time>2026-05-02T12:52:31.999Z</time></trkpt><trkpt lat="41.53081405667958" lon="13.696983891277643"><ele>223.49999999999997</ele><time>2026-05-02T12:52:33.999Z</time></trkpt><trkpt lat="41.530815907550036" lon="13.69688484249259"><ele>224.0</ele><time>2026-05-02T12:52:34.999Z</time></trkpt><trkpt lat="41.53082686641186" lon="13.696791799762408"><ele>224.5</ele><time>2026-05-02T12:52:35.999Z</time></trkpt><trkpt lat="41.53084332585707" lon="13.696702259202997"><ele>225.0</ele><time>2026-05-02T12:52:36.999Z</time></trkpt><trkpt lat="41.53086249455032" lon="13.696620854235743"><ele>225.49999999999997</ele><time>2026-05-02T12:52:37.999Z</time></trkpt><trkpt lat="41.530892297308" lon="13.69646126433056"><ele>226.0</ele><time>2026-05-02T12:52:39.999Z</time></trkpt><trkpt lat="41.53091160284036" lon="13.696316579351382"><ele>226.0</ele><time>2026-05-02T12:52:41.999Z</time></trkpt><trkpt lat="41.53096233787003" lon="13.69618501598604"><ele>226.00000000000003</ele><time>2026-05-02T12:52:43.999Z</time></trkpt><trkpt lat="41.53101962016974" lon="13.696079120867427"><ele>226.00000000000003</ele><time>2026-05-02T12:52:45.999Z</time></trkpt><trkpt lat="41.53105912854209" lon="13.695987403090124"><ele>226.0</ele><time>2026-05-02T12:52:48.999Z</time></trkpt><trkpt lat="41.531097620333014" lon="13.695910452965462"><ele>226.0</ele><time>2026-05-02T12:52:50.999Z</time></trkpt><trkpt lat="41.531171902221075" lon="13.695810467034132"><ele>229.60000000000002</ele><time>2026-05-02T12:52:52.999Z</time></trkpt><trkpt lat="41.531252652935414" lon="13.695657184456103"><ele>233.20000000000002</ele><time>2026-05-02T12:52:54.999Z</time></trkpt><trkpt lat="41.53129271513178" lon="13.695577506325227"><ele>236.79999999999998</ele><time>2026-05-02T12:52:55.999Z</time></trkpt><trkpt lat="41.531333556462805" lon="13.695502289161825"><ele>240.39999999999998</ele><time>2026-05-02T12:52:56.999Z</time></trkpt><trkpt lat="41.531401920447074" lon="13.69538434690044"><ele>244.0</ele><time>2026-05-02T12:52:59Z</time></trkpt><trkpt lat="41.53143052160988" lon="13.695293820177849"><ele>240.99999999999997</ele><time>2026-05-02T12:53:00Z</time></trkpt><trkpt lat="41.53147037489341" lon="13.695225709824403"><ele>238.0</ele><time>2026-05-02T12:53:01Z</time></trkpt><trkpt lat="41.53151737268986" lon="13.695146724053746"><ele>235.0</ele><time>2026-05-02T12:53:02Z</time></trkpt><trkpt lat="41.53156170982859" lon="13.695059421905855"><ele>232.0</ele><time>2026-05-02T12:53:03Z</time></trkpt><trkpt lat="41.53162147678471" lon="13.694960421716418"><ele>228.99999999999997</ele><time>2026-05-02T12:53:04Z</time></trkpt><trkpt lat="41.531675217665594" lon="13.694872271103469"><ele>226.0</ele><time>2026-05-02T12:53:05Z</time></trkpt><trkpt lat="41.53172621635096" lon="13.694788492897457"><ele>226.0</ele><time>2026-05-02T12:53:06Z</time></trkpt><trkpt lat="41.531777955780996" lon="13.694706151998172"><ele>226.0</ele><time>2026-05-02T12:53:07Z</time></trkpt><trkpt lat="41.53183095454379" lon="13.694651893473262"><ele>226.0</ele><time>2026-05-02T12:53:08Z</time></trkpt><trkpt lat="41.53188340843542" lon="13.694586175174466"><ele>226.0</ele><time>2026-05-02T12:53:09Z</time></trkpt><trkpt lat="41.53193563414881" lon="13.694525941360691"><ele>226.0</ele><time>2026-05-02T12:53:10Z</time></trkpt><trkpt lat="41.53198629219554" lon="13.694465520094806"><ele>226.0</ele><time>2026-05-02T12:53:11Z</time></trkpt><trkpt lat="41.53204179784624" lon="13.694406688907362"><ele>226.0</ele><time>2026-05-02T12:53:12Z</time></trkpt><trkpt lat="41.53208551749315" lon="13.69433340287146"><ele>226.8</ele><time>2026-05-02T12:53:13Z</time></trkpt><trkpt lat="41.53213130654068" lon="13.694259155198557"><ele>227.60000000000002</ele><time>2026-05-02T12:53:14Z</time></trkpt><trkpt lat="41.53222655571763" lon="13.694156076396466"><ele>228.4</ele><time>2026-05-02T12:53:16Z</time></trkpt><trkpt lat="41.53229284496923" lon="13.694014434085146"><ele>229.2</ele><time>2026-05-02T12:53:18Z</time></trkpt><trkpt lat="41.53233676176091" lon="13.693945806146118"><ele>230.0</ele><time>2026-05-02T12:53:19Z</time></trkpt><trkpt lat="41.53239657048139" lon="13.693870168601032"><ele>230.00000000000003</ele><time>2026-05-02T12:53:20Z</time></trkpt><trkpt lat="41.53244377984544" lon="13.693777060781555"><ele>230.0</ele><time>2026-05-02T12:53:21Z</time></trkpt><trkpt lat="41.5324900636898" lon="13.69370145609401"><ele>230.0</ele><time>2026-05-02T12:53:22Z</time></trkpt><trkpt lat="41.532538115485835" lon="13.693627644560323"><ele>230.0</ele><time>2026-05-02T12:53:23Z</time></trkpt><trkpt lat="41.5325927034354" lon="13.693553062822453"><ele>230.00000000000003</ele><time>2026-05-02T12:53:24Z</time></trkpt><trkpt lat="41.5326429348483" lon="13.693478767087262"><ele>230.0</ele><time>2026-05-02T12:53:25Z</time></trkpt><trkpt lat="41.53269191586869" lon="13.693402081949296"><ele>231.4285714285714</ele><time>2026-05-02T12:53:26Z</time></trkpt><trkpt lat="41.532740677849" lon="13.693326479222623"><ele>232.85714285714283</ele><time>2026-05-02T12:53:27Z</time></trkpt><trkpt lat="41.53278426718927" lon="13.693253984542418"><ele>234.28571428571428</ele><time>2026-05-02T12:53:28Z</time></trkpt><trkpt lat="41.532829779074405" lon="13.693170610086085"><ele>235.7142857142857</ele><time>2026-05-02T12:53:29Z</time></trkpt><trkpt lat="41.5328888887834" lon="13.693111656868966"><ele>237.1428571428571</ele><time>2026-05-02T12:53:30Z</time></trkpt><trkpt lat="41.53293249826182" lon="13.693050314041125"><ele>238.57142857142858</ele><time>2026-05-02T12:53:31Z</time></trkpt><trkpt lat="41.53297843413853" lon="13.69298763637944"><ele>240.0</ele><time>2026-05-02T12:53:32Z</time></trkpt><trkpt lat="41.53302848269152" lon="13.692921806305396"><ele>240.0</ele><time>2026-05-02T12:53:33Z</time></trkpt><trkpt lat="41.533070366900084" lon="13.692847561606788"><ele>240.0</ele><time>2026-05-02T12:53:34Z</time></trkpt><trkpt lat="41.53312079400984" lon="13.692775639177707"><ele>240.0</ele><time>2026-05-02T12:53:35Z</time></trkpt><trkpt lat="41.53316500979215" lon="13.692701005471735"><ele>240.0</ele><time>2026-05-02T12:53:36Z</time></trkpt><trkpt lat="41.53320360201508" lon="13.692618663668279"><ele>240.0</ele><time>2026-05-02T12:53:37Z</time></trkpt><trkpt lat="41.5332530659661" lon="13.692545930405103"><ele>240.0</ele><time>2026-05-02T12:53:38Z</time></trkpt><trkpt lat="41.53328776488122" lon="13.69247181163593"><ele>240.0</ele><time>2026-05-02T12:53:39Z</time></trkpt><trkpt lat="41.53333120691893" lon="13.692392811930363"><ele>236.5</ele><time>2026-05-02T12:53:40Z</time></trkpt><trkpt lat="41.53336002946563" lon="13.692300896553206"><ele>233.0</ele><time>2026-05-02T12:53:41Z</time></trkpt><trkpt lat="41.53338210311141" lon="13.692191135461922"><ele>229.5</ele><time>2026-05-02T12:53:42Z</time></trkpt><trkpt lat="41.53341099231575" lon="13.692079275376754"><ele>226.0</ele><time>2026-05-02T12:53:43Z</time></trkpt><trkpt lat="41.5334399138291" lon="13.691982409428514"><ele>222.5</ele><time>2026-05-02T12:53:44Z</time></trkpt><trkpt lat="41.53347021737234" lon="13.691886295479234"><ele>219.0</ele><time>2026-05-02T12:53:45Z</time></trkpt><trkpt lat="41.533506000235484" lon="13.691792968976674"><ele>217.83333333333334</ele><time>2026-05-02T12:53:46Z</time></trkpt><trkpt lat="41.53353386032261" lon="13.691704751858122"><ele>216.66666666666669</ele><time>2026-05-02T12:53:47Z</time></trkpt><trkpt lat="41.533558419230445" lon="13.691614392703563"><ele>215.5</ele><time>2026-05-02T12:53:48Z</time></trkpt><trkpt lat="41.533587537750165" lon="13.69152455766747"><ele>214.33333333333334</ele><time>2026-05-02T12:53:49Z</time></trkpt><trkpt lat="41.53361505977339" lon="13.69143649487197"><ele>213.16666666666669</ele><time>2026-05-02T12:53:50Z</time></trkpt><trkpt lat="41.53365432519678" lon="13.691305128712857"><ele>212.0</ele><time>2026-05-02T12:53:52Z</time></trkpt><trkpt lat="41.53368986868661" lon="13.691192400208246"><ele>212.00000000000003</ele><time>2026-05-02T12:53:54Z</time></trkpt><trkpt lat="41.53371880737027" lon="13.691115752791891"><ele>212.0</ele><time>2026-05-02T12:53:55Z</time></trkpt><trkpt lat="41.533754324346134" lon="13.691030019902964"><ele>212.0</ele><time>2026-05-02T12:53:56Z</time></trkpt><trkpt lat="41.53380664937484" lon="13.690933926771832"><ele>212.0</ele><time>2026-05-02T12:53:57Z</time></trkpt><trkpt lat="41.53387076885668" lon="13.69083574014928"><ele>212.00000000000003</ele><time>2026-05-02T12:53:58Z</time></trkpt><trkpt lat="41.533938401760935" lon="13.690762540732297"><ele>212.0</ele><time>2026-05-02T12:53:59Z</time></trkpt><trkpt lat="41.53400933834869" lon="13.690674671878506"><ele>210.6</ele><time>2026-05-02T12:54:00Z</time></trkpt><trkpt lat="41.53409146064764" lon="13.690584319877436"><ele>209.2</ele><time>2026-05-02T12:54:01Z</time></trkpt><trkpt lat="41.534161823408425" lon="13.690488615285151"><ele>207.8</ele><time>2026-05-02T12:54:02Z</time></trkpt><trkpt lat="41.53423376746007" lon="13.690399831986298"><ele>206.4</ele><time>2026-05-02T12:54:03Z</time></trkpt><trkpt lat="41.53430522020325" lon="13.690317723145899"><ele>205.0</ele><time>2026-05-02T12:54:04Z</time></trkpt><trkpt lat="41.53437635412586" lon="13.690243594175874"><ele>204.99999999999997</ele><time>2026-05-02T12:54:05Z</time></trkpt><trkpt lat="41.53443256268193" lon="13.690169041663811"><ele>205.0</ele><time>2026-05-02T12:54:06Z</time></trkpt><trkpt lat="41.534497407759346" lon="13.690096417898017"><ele>205.0</ele><time>2026-05-02T12:54:07Z</time></trkpt><trkpt lat="41.534554830287284" lon="13.690020510759242"><ele>205.0</ele><time>2026-05-02T12:54:08Z</time></trkpt><trkpt lat="41.53460909586566" lon="13.689943908144171"><ele>204.99999999999997</ele><time>2026-05-02T12:54:09Z</time></trkpt><trkpt lat="41.534662265129334" lon="13.689868579048088"><ele>205.0</ele><time>2026-05-02T12:54:10Z</time></trkpt><trkpt lat="41.53470987437798" lon="13.689799771420397"><ele>205.66666666666666</ele><time>2026-05-02T12:54:11Z</time></trkpt><trkpt lat="41.53475814953753" lon="13.68973579856799"><ele>206.33333333333331</ele><time>2026-05-02T12:54:12.001Z</time></trkpt><trkpt lat="41.53480798022058" lon="13.689665205575427"><ele>207.0</ele><time>2026-05-02T12:54:13.001Z</time></trkpt><trkpt lat="41.53485350121821" lon="13.68959566212969"><ele>207.66666666666669</ele><time>2026-05-02T12:54:14.001Z</time></trkpt><trkpt lat="41.53489234436939" lon="13.68952578039922"><ele>208.33333333333334</ele><time>2026-05-02T12:54:15.001Z</time></trkpt><trkpt lat="41.53498243175373" lon="13.689397628288827"><ele>209.0</ele><time>2026-05-02T12:54:17.001Z</time></trkpt><trkpt lat="41.53504955532106" lon="13.689274146721765"><ele>209.00000000000003</ele><time>2026-05-02T12:54:19.001Z</time></trkpt><trkpt lat="41.53509061976064" lon="13.689202974550067"><ele>209.0</ele><time>2026-05-02T12:54:21.001Z</time></trkpt><trkpt lat="41.535147909607325" lon="13.689101410453672"><ele>209.0</ele><time>2026-05-02T12:54:28.001Z</time></trkpt><trkpt lat="41.53523173256273" lon="13.689031411848182"><ele>209.0</ele><time>2026-05-02T12:54:30.001Z</time></trkpt><trkpt lat="41.5352995011046" lon="13.688927804236329"><ele>209.00000000000003</ele><time>2026-05-02T12:54:32.001Z</time></trkpt><trkpt lat="41.535353826975616" lon="13.688849816911057"><ele>209.0</ele><time>2026-05-02T12:54:33.001Z</time></trkpt><trkpt lat="41.535391629276724" lon="13.688778648517836"><ele>210.83333333333334</ele><time>2026-05-02T12:54:34.001Z</time></trkpt><trkpt lat="41.53542412182751" lon="13.688688633936591"><ele>212.66666666666669</ele><time>2026-05-02T12:54:34.999Z</time></trkpt><trkpt lat="41.53545707586701" lon="13.688605111361912"><ele>214.5</ele><time>2026-05-02T12:54:35.999Z</time></trkpt><trkpt lat="41.53549492681857" lon="13.688510881988844"><ele>216.33333333333331</ele><time>2026-05-02T12:54:36.999Z</time></trkpt><trkpt lat="41.535532377147966" lon="13.688423917312623"><ele>218.16666666666666</ele><time>2026-05-02T12:54:37.999Z</time></trkpt><trkpt lat="41.53556636399464" lon="13.6883441805288"><ele>220.0</ele><time>2026-05-02T12:54:38.999Z</time></trkpt><trkpt lat="41.535606743747785" lon="13.688248683159438"><ele>219.99999999999997</ele><time>2026-05-02T12:54:39.999Z</time></trkpt><trkpt lat="41.5356459019786" lon="13.68816372881558"><ele>220.0</ele><time>2026-05-02T12:54:40.999Z</time></trkpt><trkpt lat="41.53568336372074" lon="13.68807012115358"><ele>220.0</ele><time>2026-05-02T12:54:41.999Z</time></trkpt><trkpt lat="41.53572255802962" lon="13.687975199130337"><ele>220.0</ele><time>2026-05-02T12:54:42.999Z</time></trkpt><trkpt lat="41.53576280579959" lon="13.687883208030392"><ele>219.99999999999997</ele><time>2026-05-02T12:54:43.999Z</time></trkpt><trkpt lat="41.53580469960983" lon="13.687791435479834"><ele>220.0</ele><time>2026-05-02T12:54:44.999Z</time></trkpt><trkpt lat="41.53584675779107" lon="13.6877101834928"><ele>218.16666666666666</ele><time>2026-05-02T12:54:45.999Z</time></trkpt><trkpt lat="41.5358906084312" lon="13.687618898399348"><ele>216.33333333333331</ele><time>2026-05-02T12:54:46.999Z</time></trkpt><trkpt lat="41.53594038241987" lon="13.687531280102702"><ele>214.5</ele><time>2026-05-02T12:54:47.999Z</time></trkpt><trkpt lat="41.53598081329908" lon="13.687451131959332"><ele>212.66666666666669</ele><time>2026-05-02T12:54:48.999Z</time></trkpt><trkpt lat="41.536025668728506" lon="13.687361472407886"><ele>210.83333333333334</ele><time>2026-05-02T12:54:49.999Z</time></trkpt><trkpt lat="41.536072947724726" lon="13.687276612041591"><ele>209.0</ele><time>2026-05-02T12:54:50.999Z</time></trkpt><trkpt lat="41.536118108954724" lon="13.687194685576085"><ele>209.00000000000003</ele><time>2026-05-02T12:54:51.999Z</time></trkpt><trkpt lat="41.53617351894358" lon="13.687118666222768"><ele>209.0</ele><time>2026-05-02T12:54:52.999Z</time></trkpt><trkpt lat="41.53622199063213" lon="13.687031037817993"><ele>209.0</ele><time>2026-05-02T12:54:53.999Z</time></trkpt><trkpt lat="41.53627674632743" lon="13.686944321524331"><ele>209.0</ele><time>2026-05-02T12:54:55Z</time></trkpt><trkpt lat="41.536331106061866" lon="13.686864339622547"><ele>209.00000000000003</ele><time>2026-05-02T12:54:56Z</time></trkpt><trkpt lat="41.536390957179535" lon="13.686792916609116"><ele>209.0</ele><time>2026-05-02T12:54:57Z</time></trkpt><trkpt lat="41.5364449221362" lon="13.686707028346252"><ele>210.50000000000003</ele><time>2026-05-02T12:54:58Z</time></trkpt><trkpt lat="41.536497328340396" lon="13.6866298418976"><ele>212.0</ele><time>2026-05-02T12:54:59Z</time></trkpt><trkpt lat="41.536551762320656" lon="13.686546167241502"><ele>213.5</ele><time>2026-05-02T12:55:00Z</time></trkpt><trkpt lat="41.53660355817789" lon="13.6864638718371"><ele>215.0</ele><time>2026-05-02T12:55:01Z</time></trkpt><trkpt lat="41.53666109246855" lon="13.686378110677776"><ele>216.50000000000003</ele><time>2026-05-02T12:55:02Z</time></trkpt><trkpt lat="41.5367142508503" lon="13.686300749270666"><ele>218.0</ele><time>2026-05-02T12:55:03Z</time></trkpt><trkpt lat="41.536771059773194" lon="13.686221949652163"><ele>218.00000000000003</ele><time>2026-05-02T12:55:04Z</time></trkpt><trkpt lat="41.536822774879816" lon="13.686140503391378"><ele>218.0</ele><time>2026-05-02T12:55:05Z</time></trkpt><trkpt lat="41.53688194643586" lon="13.686062920698268"><ele>218.0</ele><time>2026-05-02T12:55:06Z</time></trkpt><trkpt lat="41.53694108953985" lon="13.685996398776885"><ele>218.0</ele><time>2026-05-02T12:55:07Z</time></trkpt><trkpt lat="41.53699336777121" lon="13.685918253297793"><ele>218.00000000000003</ele><time>2026-05-02T12:55:08Z</time></trkpt><trkpt lat="41.537048200630764" lon="13.685839737255465"><ele>218.0</ele><time>2026-05-02T12:55:09Z</time></trkpt><trkpt lat="41.53711551363371" lon="13.685768945319367"><ele>218.66666666666669</ele><time>2026-05-02T12:55:10Z</time></trkpt><trkpt lat="41.53717173479624" lon="13.685693101302148"><ele>219.33333333333334</ele><time>2026-05-02T12:55:11Z</time></trkpt><trkpt lat="41.53722579923813" lon="13.685618310806909"><ele>220.0</ele><time>2026-05-02T12:55:12Z</time></trkpt><trkpt lat="41.537283427354254" lon="13.685538674182068"><ele>220.66666666666669</ele><time>2026-05-02T12:55:13Z</time></trkpt><trkpt lat="41.53735093604207" lon="13.685460501989615"><ele>221.33333333333334</ele><time>2026-05-02T12:55:14Z</time></trkpt><trkpt lat="41.537408833200836" lon="13.685386132988285"><ele>222.0</ele><time>2026-05-02T12:55:15Z</time></trkpt><trkpt lat="41.53746462956883" lon="13.685305126715514"><ele>219.16666666666666</ele><time>2026-05-02T12:55:16Z</time></trkpt><trkpt lat="41.537521902439245" lon="13.685226288867641"><ele>216.33333333333331</ele><time>2026-05-02T12:55:17Z</time></trkpt><trkpt lat="41.53758389539803" lon="13.685144169419619"><ele>213.5</ele><time>2026-05-02T12:55:18Z</time></trkpt><trkpt lat="41.537644427464116" lon="13.685069269021099"><ele>210.66666666666666</ele><time>2026-05-02T12:55:19Z</time></trkpt><trkpt lat="41.53769978340054" lon="13.684987165880917"><ele>207.83333333333331</ele><time>2026-05-02T12:55:20Z</time></trkpt><trkpt lat="41.5377524383779" lon="13.68489749093238"><ele>205.0</ele><time>2026-05-02T12:55:21Z</time></trkpt><trkpt lat="41.53780308594901" lon="13.684817802338815"><ele>204.99999999999997</ele><time>2026-05-02T12:55:22Z</time></trkpt><trkpt lat="41.53785128821584" lon="13.684738511219654"><ele>205.0</ele><time>2026-05-02T12:55:23Z</time></trkpt><trkpt lat="41.53790144456052" lon="13.684655442432318"><ele>205.0</ele><time>2026-05-02T12:55:24Z</time></trkpt><trkpt lat="41.53794649632854" lon="13.684561810922359"><ele>205.0</ele><time>2026-05-02T12:55:25Z</time></trkpt><trkpt lat="41.53798881260262" lon="13.68446625929587"><ele>204.99999999999997</ele><time>2026-05-02T12:55:26Z</time></trkpt><trkpt lat="41.5380336164544" lon="13.684378824538815"><ele>205.0</ele><time>2026-05-02T12:55:27Z</time></trkpt><trkpt lat="41.5380798145752" lon="13.68429228734132"><ele>206.49999999999997</ele><time>2026-05-02T12:55:28Z</time></trkpt><trkpt lat="41.538125817486595" lon="13.684182919346858"><ele>208.0</ele><time>2026-05-02T12:55:29Z</time></trkpt><trkpt lat="41.538175785310045" lon="13.684097948157783"><ele>209.5</ele><time>2026-05-02T12:55:30Z</time></trkpt><trkpt lat="41.53821950818195" lon="13.68401458058436"><ele>211.0</ele><time>2026-05-02T12:55:31Z</time></trkpt><trkpt lat="41.538266970506555" lon="13.683927094883227"><ele>212.49999999999997</ele><time>2026-05-02T12:55:32Z</time></trkpt><trkpt lat="41.538316097397654" lon="13.683846662694146"><ele>214.0</ele><time>2026-05-02T12:55:33Z</time></trkpt><trkpt lat="41.538362226109115" lon="13.683753594557633"><ele>213.99999999999997</ele><time>2026-05-02T12:55:34Z</time></trkpt><trkpt lat="41.538406129234595" lon="13.68366945985406"><ele>214.0</ele><time>2026-05-02T12:55:35Z</time></trkpt><trkpt lat="41.53844925710894" lon="13.683589466138928"><ele>214.0</ele><time>2026-05-02T12:55:36Z</time></trkpt><trkpt lat="41.53850274308267" lon="13.683505781895501"><ele>214.0</ele><time>2026-05-02T12:55:37Z</time></trkpt><trkpt lat="41.538546739659765" lon="13.683423666308997"><ele>213.99999999999997</ele><time>2026-05-02T12:55:38Z</time></trkpt><trkpt lat="41.538593626806104" lon="13.683333381981823"><ele>214.0</ele><time>2026-05-02T12:55:39Z</time></trkpt><trkpt lat="41.53863744170013" lon="13.683252053509804"><ele>214.83333333333331</ele><time>2026-05-02T12:55:40Z</time></trkpt><trkpt lat="41.53867998625515" lon="13.683164888110772"><ele>215.66666666666666</ele><time>2026-05-02T12:55:41Z</time></trkpt><trkpt lat="41.538727300699684" lon="13.683078151373543"><ele>216.5</ele><time>2026-05-02T12:55:42Z</time></trkpt><trkpt lat="41.53877404635458" lon="13.682995251188316"><ele>217.33333333333331</ele><time>2026-05-02T12:55:43Z</time></trkpt><trkpt lat="41.5388236896716" lon="13.68291364017016"><ele>218.16666666666666</ele><time>2026-05-02T12:55:44Z</time></trkpt><trkpt lat="41.53887439612059" lon="13.682821160357069"><ele>219.0</ele><time>2026-05-02T12:55:45Z</time></trkpt><trkpt lat="41.538924277200515" lon="13.682749820620227"><ele>217.0</ele><time>2026-05-02T12:55:46Z</time></trkpt><trkpt lat="41.53897979051452" lon="13.682677213394486"><ele>215.0</ele><time>2026-05-02T12:55:47Z</time></trkpt><trkpt lat="41.53903913376195" lon="13.682598094863238"><ele>213.0</ele><time>2026-05-02T12:55:48Z</time></trkpt><trkpt lat="41.53909233385088" lon="13.682518756027228"><ele>211.0</ele><time>2026-05-02T12:55:49.001Z</time></trkpt><trkpt lat="41.5391477403281" lon="13.682444693264841"><ele>209.0</ele><time>2026-05-02T12:55:50.001Z</time></trkpt><trkpt lat="41.539205134971134" lon="13.682383742464744"><ele>207.0</ele><time>2026-05-02T12:55:51.001Z</time></trkpt><trkpt lat="41.5392617269789" lon="13.682321652478462"><ele>207.0</ele><time>2026-05-02T12:55:52.001Z</time></trkpt><trkpt lat="41.53931973010308" lon="13.682259703277207"><ele>207.0</ele><time>2026-05-02T12:55:53.001Z</time></trkpt><trkpt lat="41.539369563836445" lon="13.682199966198477"><ele>207.0</ele><time>2026-05-02T12:55:54.001Z</time></trkpt><trkpt lat="41.53941988640317" lon="13.682141758906049"><ele>207.0</ele><time>2026-05-02T12:55:55.001Z</time></trkpt><trkpt lat="41.539474739525936" lon="13.682092611344888"><ele>207.0</ele><time>2026-05-02T12:55:56.001Z</time></trkpt><trkpt lat="41.53957948518445" lon="13.681993529256548"><ele>207.0</ele><time>2026-05-02T12:55:58.001Z</time></trkpt><trkpt lat="41.53963918799275" lon="13.681930692547425"><ele>207.42857142857144</ele><time>2026-05-02T12:55:59.001Z</time></trkpt><trkpt lat="41.539695847291675" lon="13.681886472790787"><ele>207.85714285714286</ele><time>2026-05-02T12:56:00.001Z</time></trkpt><trkpt lat="41.539754608425866" lon="13.681844525513284"><ele>208.28571428571428</ele><time>2026-05-02T12:56:01.001Z</time></trkpt><trkpt lat="41.539821585181684" lon="13.681797873629181"><ele>208.71428571428572</ele><time>2026-05-02T12:56:02.001Z</time></trkpt><trkpt lat="41.53988356626838" lon="13.681750802747054"><ele>209.14285714285714</ele><time>2026-05-02T12:56:03.001Z</time></trkpt><trkpt lat="41.539950954809875" lon="13.681700105146724"><ele>209.57142857142858</ele><time>2026-05-02T12:56:04.001Z</time></trkpt><trkpt lat="41.540021559465885" lon="13.68164716293748"><ele>210.0</ele><time>2026-05-02T12:56:05.001Z</time></trkpt><trkpt lat="41.54008990154683" lon="13.681599441405563"><ele>210.0</ele><time>2026-05-02T12:56:06.001Z</time></trkpt><trkpt lat="41.54016592824517" lon="13.681546069663579"><ele>210.0</ele><time>2026-05-02T12:56:07.001Z</time></trkpt><trkpt lat="41.54023949932315" lon="13.681495239382572"><ele>210.0</ele><time>2026-05-02T12:56:08.001Z</time></trkpt><trkpt lat="41.540315113852465" lon="13.681451223869548"><ele>210.0</ele><time>2026-05-02T12:56:09.001Z</time></trkpt><trkpt lat="41.54038826921355" lon="13.681406826748097"><ele>210.0</ele><time>2026-05-02T12:56:10.001Z</time></trkpt><trkpt lat="41.54046013999678" lon="13.681357020244123"><ele>210.0</ele><time>2026-05-02T12:56:11.001Z</time></trkpt><trkpt lat="41.54052578297008" lon="13.68131172201708"><ele>209.16666666666666</ele><time>2026-05-02T12:56:12.001Z</time></trkpt><trkpt lat="41.54059922365763" lon="13.681257489252548"><ele>208.33333333333331</ele><time>2026-05-02T12:56:13.001Z</time></trkpt><trkpt lat="41.54066723315401" lon="13.681209997040376"><ele>207.5</ele><time>2026-05-02T12:56:14.001Z</time></trkpt><trkpt lat="41.5407327439359" lon="13.681162145124791"><ele>206.66666666666666</ele><time>2026-05-02T12:56:15.001Z</time></trkpt><trkpt lat="41.540805743327965" lon="13.681109451224458"><ele>205.83333333333331</ele><time>2026-05-02T12:56:16.001Z</time></trkpt><trkpt lat="41.54087317547353" lon="13.681060170391957"><ele>205.0</ele><time>2026-05-02T12:56:17.001Z</time></trkpt><trkpt lat="41.540945888704194" lon="13.681008242187222"><ele>204.99999999999997</ele><time>2026-05-02T12:56:18.001Z</time></trkpt><trkpt lat="41.54100957136338" lon="13.680961690555653"><ele>205.0</ele><time>2026-05-02T12:56:19.001Z</time></trkpt><trkpt lat="41.54107531978636" lon="13.680917757176578"><ele>205.0</ele><time>2026-05-02T12:56:20.001Z</time></trkpt><trkpt lat="41.541138934360745" lon="13.680864953487907"><ele>205.0</ele><time>2026-05-02T12:56:21.001Z</time></trkpt><trkpt lat="41.54121292684707" lon="13.6808226785723"><ele>204.99999999999997</ele><time>2026-05-02T12:56:22.001Z</time></trkpt><trkpt lat="41.54127705389914" lon="13.680775925642218"><ele>205.0</ele><time>2026-05-02T12:56:23.001Z</time></trkpt><trkpt lat="41.541348396823395" lon="13.680725870212752"><ele>208.49999999999997</ele><time>2026-05-02T12:56:24.001Z</time></trkpt><trkpt lat="41.5414095043228" lon="13.680661973228977"><ele>212.0</ele><time>2026-05-02T12:56:25.001Z</time></trkpt><trkpt lat="41.541473500195956" lon="13.680597730441939"><ele>215.5</ele><time>2026-05-02T12:56:26.001Z</time></trkpt><trkpt lat="41.541537025920995" lon="13.680539460713051"><ele>219.0</ele><time>2026-05-02T12:56:27.001Z</time></trkpt><trkpt lat="41.54159902690175" lon="13.680475614786584"><ele>222.49999999999997</ele><time>2026-05-02T12:56:28.001Z</time></trkpt><trkpt lat="41.54166423573595" lon="13.680420821743038"><ele>226.0</ele><time>2026-05-02T12:56:29.001Z</time></trkpt><trkpt lat="41.54172499970147" lon="13.68035275499363"><ele>225.99999999999997</ele><time>2026-05-02T12:56:30.001Z</time></trkpt><trkpt lat="41.54178488195274" lon="13.680282921428915"><ele>226.0</ele><time>2026-05-02T12:56:31.001Z</time></trkpt><trkpt lat="41.541844499052935" lon="13.680215244659946"><ele>226.0</ele><time>2026-05-02T12:56:32.001Z</time></trkpt><trkpt lat="41.54189862999045" lon="13.68014158383861"><ele>226.0</ele><time>2026-05-02T12:56:33.001Z</time></trkpt><trkpt lat="41.54195382581404" lon="13.680065291344077"><ele>225.99999999999997</ele><time>2026-05-02T12:56:34.001Z</time></trkpt><trkpt lat="41.541997790590706" lon="13.679988593023388"><ele>226.0</ele><time>2026-05-02T12:56:35.001Z</time></trkpt><trkpt lat="41.54204591552202" lon="13.67991148735219"><ele>225.4</ele><time>2026-05-02T12:56:36.001Z</time></trkpt><trkpt lat="41.54212636385414" lon="13.679785942713961"><ele>224.8</ele><time>2026-05-02T12:56:38.001Z</time></trkpt><trkpt lat="41.54219390803137" lon="13.679679791029557"><ele>224.20000000000002</ele><time>2026-05-02T12:56:40.001Z</time></trkpt><trkpt lat="41.54226477197681" lon="13.679537350672428"><ele>223.60000000000002</ele><time>2026-05-02T12:56:41.999Z</time></trkpt><trkpt lat="41.54230785937279" lon="13.679464537639998"><ele>223.0</ele><time>2026-05-02T12:56:42.999Z</time></trkpt><trkpt lat="41.54235848973671" lon="13.679383452310224"><ele>223.0</ele><time>2026-05-02T12:56:43.999Z</time></trkpt><trkpt lat="41.542398615599176" lon="13.679311325777336"><ele>223.0</ele><time>2026-05-02T12:56:44.999Z</time></trkpt><trkpt lat="41.542436187971866" lon="13.67923710463567"><ele>223.0</ele><time>2026-05-02T12:56:45.999Z</time></trkpt><trkpt lat="41.54247551936315" lon="13.679169449917362"><ele>223.0</ele><time>2026-05-02T12:56:46.999Z</time></trkpt><trkpt lat="41.542522070256815" lon="13.67910429831917"><ele>223.0</ele><time>2026-05-02T12:56:47.999Z</time></trkpt><trkpt lat="41.542569192873756" lon="13.67903925852434"><ele>223.0</ele><time>2026-05-02T12:56:48.999Z</time></trkpt><trkpt lat="41.54262068534386" lon="13.678969499829346"><ele>223.0</ele><time>2026-05-02T12:56:49.999Z</time></trkpt><trkpt lat="41.542674628845816" lon="13.678907430625529"><ele>222.99999999999997</ele><time>2026-05-02T12:56:50.999Z</time></trkpt><trkpt lat="41.54272803728897" lon="13.67885997951996"><ele>223.0</ele><time>2026-05-02T12:56:51.999Z</time></trkpt><trkpt lat="41.54277637431919" lon="13.678802846453262"><ele>223.0</ele><time>2026-05-02T12:56:53.999Z</time></trkpt><trkpt lat="41.54284246627704" lon="13.678748651016303"><ele>223.0</ele><time>2026-05-02T12:56:55.999Z</time></trkpt><trkpt lat="41.54294103824004" lon="13.678652411490258"><ele>222.99999999999997</ele><time>2026-05-02T12:56:57.999Z</time></trkpt><trkpt lat="41.54299930249996" lon="13.678586725086113"><ele>223.0</ele><time>2026-05-02T12:56:59Z</time></trkpt><trkpt lat="41.543039006270455" lon="13.67851053499315"><ele>224.57142857142856</ele><time>2026-05-02T12:57:00Z</time></trkpt><trkpt lat="41.543092632967436" lon="13.678457145422517"><ele>226.14285714285714</ele><time>2026-05-02T12:57:01Z</time></trkpt><trkpt lat="41.543143368154006" lon="13.67838347632543"><ele>227.71428571428572</ele><time>2026-05-02T12:57:02Z</time></trkpt><trkpt lat="41.54319291953343" lon="13.678299914209726"><ele>229.28571428571428</ele><time>2026-05-02T12:57:03Z</time></trkpt><trkpt lat="41.54323640078789" lon="13.678232403395256"><ele>230.8571428571429</ele><time>2026-05-02T12:57:04Z</time></trkpt><trkpt lat="41.54328427524104" lon="13.678159342409085"><ele>232.42857142857144</ele><time>2026-05-02T12:57:05Z</time></trkpt><trkpt lat="41.54332871715134" lon="13.678099166121072"><ele>234.0</ele><time>2026-05-02T12:57:06Z</time></trkpt><trkpt lat="41.54336904118391" lon="13.678012328191631"><ele>234.0</ele><time>2026-05-02T12:57:07Z</time></trkpt><trkpt lat="41.54341618700981" lon="13.677942008914552"><ele>234.00000000000003</ele><time>2026-05-02T12:57:08Z</time></trkpt><trkpt lat="41.543457151190516" lon="13.677872876502258"><ele>234.0</ele><time>2026-05-02T12:57:09Z</time></trkpt><trkpt lat="41.54350736289697" lon="13.677783301823153"><ele>234.0</ele><time>2026-05-02T12:57:10Z</time></trkpt><trkpt lat="41.54355427257506" lon="13.677709514458256"><ele>234.00000000000003</ele><time>2026-05-02T12:57:11Z</time></trkpt><trkpt lat="41.543608452750604" lon="13.677629980833276"><ele>234.0</ele><time>2026-05-02T12:57:12Z</time></trkpt><trkpt lat="41.54365617413138" lon="13.677553460158213"><ele>234.0</ele><time>2026-05-02T12:57:13Z</time></trkpt><trkpt lat="41.543701358106134" lon="13.677492718699451"><ele>237.16666666666666</ele><time>2026-05-02T12:57:14Z</time></trkpt><trkpt lat="41.54375400433889" lon="13.6774157026577"><ele>240.33333333333331</ele><time>2026-05-02T12:57:15Z</time></trkpt><trkpt lat="41.5438009697062" lon="13.677320898487658"><ele>243.5</ele><time>2026-05-02T12:57:16Z</time></trkpt><trkpt lat="41.54385608238737" lon="13.677246930728137"><ele>246.66666666666666</ele><time>2026-05-02T12:57:17Z</time></trkpt><trkpt lat="41.54390289791098" lon="13.677165966931643"><ele>249.83333333333331</ele><time>2026-05-02T12:57:18Z</time></trkpt><trkpt lat="41.54395207910263" lon="13.677083321783336"><ele>253.0</ele><time>2026-05-02T12:57:19Z</time></trkpt><trkpt lat="41.54399897180394" lon="13.677009899142586"><ele>249.66666666666666</ele><time>2026-05-02T12:57:20Z</time></trkpt><trkpt lat="41.54404112215227" lon="13.676931967299602"><ele>246.33333333333331</ele><time>2026-05-02T12:57:21Z</time></trkpt><trkpt lat="41.54408102617988" lon="13.676861302243276"><ele>243.0</ele><time>2026-05-02T12:57:22Z</time></trkpt><trkpt lat="41.54412990011155" lon="13.676772562849855"><ele>239.66666666666669</ele><time>2026-05-02T12:57:23Z</time></trkpt><trkpt lat="41.54421411698105" lon="13.676660847052199"><ele>236.33333333333334</ele><time>2026-05-02T12:57:25Z</time></trkpt><trkpt lat="41.54427241300226" lon="13.676558004176087"><ele>233.0</ele><time>2026-05-02T12:57:27Z</time></trkpt><trkpt lat="41.54431742226234" lon="13.676473541913667"><ele>233.0</ele><time>2026-05-02T12:57:28Z</time></trkpt><trkpt lat="41.544367206819835" lon="13.676415292643954"><ele>233.0</ele><time>2026-05-02T12:57:29Z</time></trkpt><trkpt lat="41.544421595886654" lon="13.676348349780218"><ele>233.0</ele><time>2026-05-02T12:57:30Z</time></trkpt><trkpt lat="41.54447128098694" lon="13.676285178966731"><ele>233.0</ele><time>2026-05-02T12:57:31Z</time></trkpt><trkpt lat="41.54452923406706" lon="13.676216930124811"><ele>233.0</ele><time>2026-05-02T12:57:32Z</time></trkpt><trkpt lat="41.54457754578071" lon="13.676156740409203"><ele>233.0</ele><time>2026-05-02T12:57:33Z</time></trkpt><trkpt lat="41.544620639120055" lon="13.676082993189443"><ele>233.0</ele><time>2026-05-02T12:57:34Z</time></trkpt><trkpt lat="41.544658048888664" lon="13.675995065973522"><ele>236.83333333333334</ele><time>2026-05-02T12:57:35Z</time></trkpt><trkpt lat="41.54468599874908" lon="13.675900521720617"><ele>240.66666666666669</ele><time>2026-05-02T12:57:36Z</time></trkpt><trkpt lat="41.54470587212294" lon="13.675794011741099"><ele>244.5</ele><time>2026-05-02T12:57:37Z</time></trkpt><trkpt lat="41.54471844493863" lon="13.675699696745884"><ele>248.33333333333331</ele><time>2026-05-02T12:57:38Z</time></trkpt><trkpt lat="41.54473049059211" lon="13.675608200966973"><ele>252.16666666666666</ele><time>2026-05-02T12:57:39Z</time></trkpt><trkpt lat="41.54474842093213" lon="13.675498710945329"><ele>256.0</ele><time>2026-05-02T12:57:40Z</time></trkpt><trkpt lat="41.54476312773154" lon="13.675402524034135"><ele>255.99999999999997</ele><time>2026-05-02T12:57:41Z</time></trkpt><trkpt lat="41.54478414339082" lon="13.675291535437275"><ele>256.0</ele><time>2026-05-02T12:57:42Z</time></trkpt><trkpt lat="41.544804738541856" lon="13.675192142919778"><ele>256.0</ele><time>2026-05-02T12:57:43Z</time></trkpt><trkpt lat="41.544822376865" lon="13.67509163844458"><ele>256.0</ele><time>2026-05-02T12:57:44Z</time></trkpt><trkpt lat="41.54484244254796" lon="13.674989509533695"><ele>255.99999999999997</ele><time>2026-05-02T12:57:45Z</time></trkpt><trkpt lat="41.5448579557277" lon="13.674885279359543"><ele>256.0</ele><time>2026-05-02T12:57:46.001Z</time></trkpt><trkpt lat="41.544876894096745" lon="13.674790514379787"><ele>254.7142857142857</ele><time>2026-05-02T12:57:47.001Z</time></trkpt><trkpt lat="41.544896617179" lon="13.674695540046638"><ele>253.4285714285714</ele><time>2026-05-02T12:57:48.001Z</time></trkpt><trkpt lat="41.54491792175629" lon="13.67460029488395"><ele>252.14285714285714</ele><time>2026-05-02T12:57:49.001Z</time></trkpt><trkpt lat="41.54493794807528" lon="13.674508203084075"><ele>250.85714285714283</ele><time>2026-05-02T12:57:50.001Z</time></trkpt><trkpt lat="41.544958380288215" lon="13.674397540553166"><ele>249.57142857142856</ele><time>2026-05-02T12:57:51.001Z</time></trkpt><trkpt lat="41.54497886703868" lon="13.674302107880022"><ele>248.28571428571428</ele><time>2026-05-02T12:57:52.001Z</time></trkpt><trkpt lat="41.54500189326901" lon="13.674216137979487"><ele>247.0</ele><time>2026-05-02T12:57:53.001Z</time></trkpt><trkpt lat="41.54502699294858" lon="13.674109560297255"><ele>245.42857142857144</ele><time>2026-05-02T12:57:54.001Z</time></trkpt><trkpt lat="41.54505534147589" lon="13.674021068523608"><ele>243.85714285714283</ele><time>2026-05-02T12:57:55.001Z</time></trkpt><trkpt lat="41.5450840324738" lon="13.673932415455534"><ele>242.28571428571428</ele><time>2026-05-02T12:57:56.001Z</time></trkpt><trkpt lat="41.54510851640236" lon="13.67383121445965"><ele>240.71428571428572</ele><time>2026-05-02T12:57:57.001Z</time></trkpt><trkpt lat="41.54513863168905" lon="13.673740195420953"><ele>239.14285714285717</ele><time>2026-05-02T12:57:58.001Z</time></trkpt><trkpt lat="41.54517402522417" lon="13.673664291157307"><ele>237.57142857142856</ele><time>2026-05-02T12:57:59.001Z</time></trkpt><trkpt lat="41.545214038887046" lon="13.673571014716957"><ele>236.0</ele><time>2026-05-02T12:58:00.001Z</time></trkpt><trkpt lat="41.545254413730284" lon="13.673473853824952"><ele>234.14285714285714</ele><time>2026-05-02T12:58:01.001Z</time></trkpt><trkpt lat="41.545294872054484" lon="13.673402508843957"><ele>232.2857142857143</ele><time>2026-05-02T12:58:02.001Z</time></trkpt><trkpt lat="41.5453343538349" lon="13.673307533619692"><ele>230.42857142857144</ele><time>2026-05-02T12:58:03.001Z</time></trkpt><trkpt lat="41.54537234119742" lon="13.673224992730207"><ele>228.57142857142856</ele><time>2026-05-02T12:58:04.001Z</time></trkpt><trkpt lat="41.5454141990731" lon="13.67314444845595"><ele>226.71428571428572</ele><time>2026-05-02T12:58:05.001Z</time></trkpt><trkpt lat="41.54544653313548" lon="13.673053898392268"><ele>224.85714285714286</ele><time>2026-05-02T12:58:06.001Z</time></trkpt><trkpt lat="41.5454815310699" lon="13.672964573635179"><ele>223.0</ele><time>2026-05-02T12:58:07.001Z</time></trkpt><trkpt lat="41.54551700248458" lon="13.672882493477791"><ele>227.99999999999997</ele><time>2026-05-02T12:58:08.001Z</time></trkpt><trkpt lat="41.54555828742912" lon="13.67279687656803"><ele>233.0</ele><time>2026-05-02T12:58:09.001Z</time></trkpt><trkpt lat="41.545600840797206" lon="13.672710738588334"><ele>238.0</ele><time>2026-05-02T12:58:10.001Z</time></trkpt><trkpt lat="41.54563646574136" lon="13.67262631879877"><ele>243.0</ele><time>2026-05-02T12:58:11.001Z</time></trkpt><trkpt lat="41.54567194505586" lon="13.672538987596583"><ele>247.99999999999997</ele><time>2026-05-02T12:58:12.001Z</time></trkpt><trkpt lat="41.5457062679941" lon="13.672435903310328"><ele>253.0</ele><time>2026-05-02T12:58:13.001Z</time></trkpt><trkpt lat="41.54574029155895" lon="13.672339529692021"><ele>252.99999999999997</ele><time>2026-05-02T12:58:14.001Z</time></trkpt><trkpt lat="41.545769502308815" lon="13.67224510849316"><ele>253.0</ele><time>2026-05-02T12:58:15.001Z</time></trkpt><trkpt lat="41.545800358241095" lon="13.672159973945726"><ele>253.0</ele><time>2026-05-02T12:58:16.001Z</time></trkpt><trkpt lat="41.54582725699438" lon="13.672066279354512"><ele>253.0</ele><time>2026-05-02T12:58:17.001Z</time></trkpt><trkpt lat="41.54585690887069" lon="13.671966605216323"><ele>252.99999999999997</ele><time>2026-05-02T12:58:18.001Z</time></trkpt><trkpt lat="41.545891789121555" lon="13.671884515775785"><ele>253.0</ele><time>2026-05-02T12:58:19.001Z</time></trkpt><trkpt lat="41.54592852151424" lon="13.671793528248198"><ele>251.00000000000003</ele><time>2026-05-02T12:58:20.001Z</time></trkpt><trkpt lat="41.54596581659403" lon="13.671705169273904"><ele>249.0</ele><time>2026-05-02T12:58:21.001Z</time></trkpt><trkpt lat="41.546006030252" lon="13.671630613889445"><ele>247.00000000000003</ele><time>2026-05-02T12:58:22.001Z</time></trkpt><trkpt lat="41.546039684324406" lon="13.671541044458289"><ele>245.00000000000003</ele><time>2026-05-02T12:58:23.001Z</time></trkpt><trkpt lat="41.546075465213946" lon="13.671456410786988"><ele>243.0</ele><time>2026-05-02T12:58:24.001Z</time></trkpt><trkpt lat="41.54610813891283" lon="13.671362992897976"><ele>241.00000000000003</ele><time>2026-05-02T12:58:25.001Z</time></trkpt><trkpt lat="41.54614676117894" lon="13.671278404115272"><ele>239.00000000000003</ele><time>2026-05-02T12:58:26.001Z</time></trkpt><trkpt lat="41.54617752225014" lon="13.671187647711626"><ele>244.42857142857144</ele><time>2026-05-02T12:58:27.001Z</time></trkpt><trkpt lat="41.54621677075533" lon="13.671108555063375"><ele>249.85714285714286</ele><time>2026-05-02T12:58:28.001Z</time></trkpt><trkpt lat="41.54625764194268" lon="13.671027191201913"><ele>255.28571428571428</ele><time>2026-05-02T12:58:29.001Z</time></trkpt><trkpt lat="41.54629174661887" lon="13.670937466909376"><ele>260.7142857142857</ele><time>2026-05-02T12:58:30.001Z</time></trkpt><trkpt lat="41.54632914437953" lon="13.67085425620168"><ele>266.1428571428571</ele><time>2026-05-02T12:58:31.001Z</time></trkpt><trkpt lat="41.546364543300314" lon="13.670775238641314"><ele>271.57142857142856</ele><time>2026-05-02T12:58:32.001Z</time></trkpt><trkpt lat="41.54639948221141" lon="13.670693882420462"><ele>277.0</ele><time>2026-05-02T12:58:33.001Z</time></trkpt><trkpt lat="41.546436275984924" lon="13.67060322735163"><ele>277.0</ele><time>2026-05-02T12:58:34.001Z</time></trkpt><trkpt lat="41.54647859900528" lon="13.670517833474518"><ele>277.0</ele><time>2026-05-02T12:58:35.001Z</time></trkpt><trkpt lat="41.54651931913286" lon="13.670433512600793"><ele>277.0</ele><time>2026-05-02T12:58:36.001Z</time></trkpt><trkpt lat="41.54655443609514" lon="13.670352800133328"><ele>277.0</ele><time>2026-05-02T12:58:37.001Z</time></trkpt><trkpt lat="41.54659036924034" lon="13.670261747281264"><ele>277.0</ele><time>2026-05-02T12:58:38.001Z</time></trkpt><trkpt lat="41.546626881932774" lon="13.67016110735165"><ele>277.0</ele><time>2026-05-02T12:58:39.001Z</time></trkpt><trkpt lat="41.546665521963796" lon="13.670076362557257"><ele>272.5</ele><time>2026-05-02T12:58:40.001Z</time></trkpt><trkpt lat="41.54669872085926" lon="13.669992735557122"><ele>268.0</ele><time>2026-05-02T12:58:41.001Z</time></trkpt><trkpt lat="41.54673709854865" lon="13.669921093791217"><ele>263.5</ele><time>2026-05-02T12:58:42.001Z</time></trkpt><trkpt lat="41.54677393709073" lon="13.66982941499044"><ele>259.0</ele><time>2026-05-02T12:58:43.001Z</time></trkpt><trkpt lat="41.546813271689295" lon="13.669745339569749"><ele>254.49999999999997</ele><time>2026-05-02T12:58:44.001Z</time></trkpt><trkpt lat="41.54684552092975" lon="13.669656181564088"><ele>250.0</ele><time>2026-05-02T12:58:45.001Z</time></trkpt><trkpt lat="41.54688583733782" lon="13.669553238672512"><ele>249.99999999999997</ele><time>2026-05-02T12:58:46.001Z</time></trkpt><trkpt lat="41.546924862603476" lon="13.669469322545941"><ele>250.0</ele><time>2026-05-02T12:58:46.999Z</time></trkpt><trkpt lat="41.54696467560265" lon="13.669383609538537"><ele>250.0</ele><time>2026-05-02T12:58:47.999Z</time></trkpt><trkpt lat="41.54700132719006" lon="13.669290878008967"><ele>250.0</ele><time>2026-05-02T12:58:48.999Z</time></trkpt><trkpt lat="41.54702977338935" lon="13.669193493367377"><ele>249.99999999999997</ele><time>2026-05-02T12:58:49.999Z</time></trkpt><trkpt lat="41.547072354714295" lon="13.669119786629759"><ele>250.0</ele><time>2026-05-02T12:58:50.999Z</time></trkpt><trkpt lat="41.547109314727784" lon="13.669031026261882"><ele>251.83333333333331</ele><time>2026-05-02T12:58:51.999Z</time></trkpt><trkpt lat="41.54714458225387" lon="13.668941328924456"><ele>253.66666666666666</ele><time>2026-05-02T12:58:52.999Z</time></trkpt><trkpt lat="41.54718065579578" lon="13.668848769936734"><ele>255.5</ele><time>2026-05-02T12:58:53.999Z</time></trkpt><trkpt lat="41.5472078072415" lon="13.668758584134952"><ele>257.3333333333333</ele><time>2026-05-02T12:58:54.999Z</time></trkpt><trkpt lat="41.54724441247564" lon="13.668667280616043"><ele>259.1666666666667</ele><time>2026-05-02T12:58:55.999Z</time></trkpt><trkpt lat="41.547279050756465" lon="13.668574053845054"><ele>261.0</ele><time>2026-05-02T12:58:56.999Z</time></trkpt><trkpt lat="41.54731235334962" lon="13.668471482382168"><ele>261.0</ele><time>2026-05-02T12:58:57.999Z</time></trkpt><trkpt lat="41.547348860879666" lon="13.668377602214404"><ele>261.0</ele><time>2026-05-02T12:58:59Z</time></trkpt><trkpt lat="41.54737555354521" lon="13.668272506307842"><ele>261.0</ele><time>2026-05-02T12:59:00Z</time></trkpt><trkpt lat="41.54741440175343" lon="13.66819768447294"><ele>261.0</ele><time>2026-05-02T12:59:01Z</time></trkpt><trkpt lat="41.547443517117046" lon="13.6681152498651"><ele>261.0</ele><time>2026-05-02T12:59:02Z</time></trkpt><trkpt lat="41.54747615251203" lon="13.66803036304933"><ele>261.0</ele><time>2026-05-02T12:59:03Z</time></trkpt><trkpt lat="41.547539263472046" lon="13.667900646751487"><ele>261.0</ele><time>2026-05-02T12:59:05Z</time></trkpt><trkpt lat="41.54757123390919" lon="13.667819164095622"><ele>261.0</ele><time>2026-05-02T12:59:06Z</time></trkpt><trkpt lat="41.54762753164014" lon="13.667682409405558"><ele>261.0</ele><time>2026-05-02T12:59:08Z</time></trkpt><trkpt lat="41.54766504064445" lon="13.667613071973937"><ele>261.0</ele><time>2026-05-02T12:59:09Z</time></trkpt><trkpt lat="41.5477461406299" lon="13.667507540960656"><ele>261.0</ele><time>2026-05-02T12:59:11Z</time></trkpt><trkpt lat="41.54777132941115" lon="13.667416325506018"><ele>261.0</ele><time>2026-05-02T12:59:12Z</time></trkpt><trkpt lat="41.547832744053665" lon="13.667348749007692"><ele>259.2</ele><time>2026-05-02T12:59:13Z</time></trkpt><trkpt lat="41.547877414126944" lon="13.667267451312231"><ele>257.40000000000003</ele><time>2026-05-02T12:59:14Z</time></trkpt><trkpt lat="41.5479482478777" lon="13.667110428371336"><ele>255.6</ele><time>2026-05-02T12:59:16Z</time></trkpt><trkpt lat="41.548008768935844" lon="13.666987701980872"><ele>253.8</ele><time>2026-05-02T12:59:18Z</time></trkpt><trkpt lat="41.548088030481175" lon="13.6668842255783"><ele>252.0</ele><time>2026-05-02T12:59:20Z</time></trkpt><trkpt lat="41.54816029038978" lon="13.666775122472764"><ele>252.0</ele><time>2026-05-02T12:59:22Z</time></trkpt><trkpt lat="41.54824402227125" lon="13.666672733717768"><ele>252.0</ele><time>2026-05-02T12:59:24Z</time></trkpt><trkpt lat="41.54833468595133" lon="13.666604591558096"><ele>252.0</ele><time>2026-05-02T12:59:26Z</time></trkpt><trkpt lat="41.54842423242104" lon="13.666555057776955"><ele>252.0</ele><time>2026-05-02T12:59:28Z</time></trkpt><trkpt lat="41.548502110614386" lon="13.666515981261002"><ele>252.0</ele><time>2026-05-02T12:59:33Z</time></trkpt><trkpt lat="41.54858395603588" lon="13.666550446630898"><ele>252.0</ele><time>2026-05-02T12:59:36Z</time></trkpt><trkpt lat="41.548638550734545" lon="13.666613836902911"><ele>252.0</ele><time>2026-05-02T12:59:38Z</time></trkpt><trkpt lat="41.5487204765118" lon="13.666661957201347"><ele>234.0</ele><time>2026-05-02T12:59:41Z</time></trkpt></trkseg></trk></gpx>